Observation data for Romero 11SSW on 12/13/2019      Previous  Date       Current Mesonet Observations  Soil Data  Daily Summary Page  Observations in Plain Language
KBR1 130600Z 33003KT 02/M05 A2999 RMK A01 T00161049  RH  062%=      5-min Rain = 0
KBR1 130601Z 34002KT 02/M05 A2999 RMK A01 T00151049  RH  063%=      5-min Rain = 0
KBR1 130602Z 33002KT 01/M05 A2999 RMK A01 T00141049  RH  063%=      5-min Rain = 0
KBR1 130603Z 32002KT 02/M05 A2999 RMK A01 T00151048  RH  063%=      5-min Rain = 0
KBR1 130604Z 31002KT 02/M05 A2999 RMK A01 T00161048  RH  063%=      5-min Rain = 0
KBR1 130605Z 29001KT 02/M05 A2999 RMK A01 T00161048  RH  062%=      5-min Rain = 0
KBR1 130606Z 29002KT 02/M05 A2999 RMK A01 T00171047  RH  062%=      5-min Rain = 0
KBR1 130607Z 28003KT 02/M05 A2999 RMK A01 T00181047  RH  062%=      5-min Rain = 0
KBR1 130608Z 28004KT 02/M05 A2999 RMK A01 T00181047  RH  062%=      5-min Rain = 0
KBR1 130609Z 28004KT 02/M05 A2999 RMK A01 T00191047  RH  062%=      5-min Rain = 0
KBR1 130610Z 28004KT 02/M05 A2999 RMK A01 T00211047  RH  061%=      5-min Rain = 0
KBR1 130611Z 28003KT 02/M05 A2999 RMK A01 T00221047  RH  060%=      5-min Rain = 0
KBR1 130612Z 29004KT 02/M05 A2999 RMK A01 T00221047  RH  060%=      5-min Rain = 0
KBR1 130613Z 30004KT 02/M05 A2999 RMK A01 T00201048  RH  061%=      5-min Rain = 0
KBR1 130614Z 30004KT 02/M05 A2999 RMK A01 T00161049  RH  062%=      5-min Rain = 0
KBR1 130615Z 30004KT 01/M05 A2999 RMK A01 T00131050  RH  063%=      5-min Rain = 0
KBR1 130616Z 30003KT 01/M05 A2999 RMK A01 T00101050  RH  064%=      5-min Rain = 0
KBR1 130617Z 32003KT 01/M05 A2999 RMK A01 T00081050  RH  065%=      5-min Rain = 0
KBR1 130618Z 33003KT 01/M05 A2999 RMK A01 T00071049  RH  066%=      5-min Rain = 0
KBR1 130619Z 33004KT 01/M05 A2999 RMK A01 T00061049  RH  066%=      5-min Rain = 0
KBR1 130620Z 34003KT 01/M05 A2999 RMK A01 T00051050  RH  067%=      5-min Rain = 0
KBR1 130621Z 35003KT 00/M05 A2999 RMK A01 T00031050  RH  067%=      5-min Rain = 0
KBR1 130622Z 00004KT 00/M05 A2999 RMK A01 T00031050  RH  068%=      5-min Rain = 0
KBR1 130623Z 01004KT 00/M05 A2999 RMK A01 T00031050  RH  068%=      5-min Rain = 0
KBR1 130624Z 36004KT 00/M05 A2999 RMK A01 T00041049  RH  068%=      5-min Rain = 0
KBR1 130625Z 35003KT 01/M05 A2999 RMK A01 T00071048  RH  067%=      5-min Rain = 0
KBR1 130626Z 34003KT 01/M05 A2999 RMK A01 T00081048  RH  066%=      5-min Rain = 0
KBR1 130627Z 32002KT 01/M05 A2999 RMK A01 T00101048  RH  065%=      5-min Rain = 0
KBR1 130628Z 32002KT 01/M05 A2998 RMK A01 T00101048  RH  065%=      5-min Rain = 0
KBR1 130629Z 30002KT 01/M05 A2998 RMK A01 T00111049  RH  065%=      5-min Rain = 0
KBR1 130630Z 29003KT 01/M05 A2998 RMK A01 T00111049  RH  064%=      5-min Rain = 0
KBR1 130631Z 29003KT 01/M05 A2998 RMK A01 T00111048  RH  065%=      5-min Rain = 0
KBR1 130632Z 29003KT 01/M05 A2998 RMK A01 T00111048  RH  065%=      5-min Rain = 0
KBR1 130633Z 29004KT 01/M05 A2998 RMK A01 T00111048  RH  064%=      5-min Rain = 0
KBR1 130634Z 29004KT 01/M05 A2998 RMK A01 T00111048  RH  064%=      5-min Rain = 0
KBR1 130635Z 29004KT 01/M05 A2998 RMK A01 T00121048  RH  064%=      5-min Rain = 0
KBR1 130636Z 29004KT 01/M05 A2998 RMK A01 T00131048  RH  064%=      5-min Rain = 0
KBR1 130637Z 30004KT 01/M05 A2998 RMK A01 T00131049  RH  064%=      5-min Rain = 0
KBR1 130638Z 30004KT 01/M05 A2998 RMK A01 T00121049  RH  064%=      5-min Rain = 0
KBR1 130639Z 30004KT 01/M05 A2998 RMK A01 T00111050  RH  064%=      5-min Rain = 0
KBR1 130640Z 30004KT 01/M05 A2998 RMK A01 T00091050  RH  065%=      5-min Rain = 0
KBR1 130641Z 30003KT 01/M05 A2998 RMK A01 T00071050  RH  065%=      5-min Rain = 0
KBR1 130642Z 29003KT 01/M05 A2998 RMK A01 T00051050  RH  066%=      5-min Rain = 0
KBR1 130643Z 29002KT 00/M05 A2998 RMK A01 T00041051  RH  067%=      5-min Rain = 0
KBR1 130644Z 28001KT 00/M05 A2998 RMK A01 T00031050  RH  067%=      5-min Rain = 0
KBR1 130645Z 29000KT 00/M05 A2998 RMK A01 T00021050  RH  068%=      5-min Rain = 0
KBR1 130646Z 31000KT 00/M05 A2998 RMK A01 T00021049  RH  068%=      5-min Rain = 0
KBR1 130647Z 00000KT 00/M05 A2998 RMK A01 T00021049  RH  069%=      5-min Rain = 0
KBR1 130648Z 00000KT 00/M05 A2998 RMK A01 T00021049  RH  069%=      5-min Rain = 0
KBR1 130649Z 00000KT 00/M05 A2998 RMK A01 T00031049  RH  068%=      5-min Rain = 0
KBR1 130650Z 31000KT 00/M05 A2998 RMK A01 T00031048  RH  068%=      5-min Rain = 0
KBR1 130651Z 29000KT 00/M05 A2998 RMK A01 T00041048  RH  068%=      5-min Rain = 0
KBR1 130652Z 00000KT 00/M05 A2998 RMK A01 T00041048  RH  068%=      5-min Rain = 0
KBR1 130653Z 29000KT 00/M05 A2998 RMK A01 T00041049  RH  068%=      5-min Rain = 0
KBR1 130654Z 29001KT 00/M05 A2997 RMK A01 T00041048  RH  068%=      5-min Rain = 0
KBR1 130655Z 28002KT 00/M05 A2997 RMK A01 T00041048  RH  068%=      5-min Rain = 0
KBR1 130656Z 26001KT 00/M05 A2997 RMK A01 T00041048  RH  068%=      5-min Rain = 0
KBR1 130657Z 26002KT 00/M05 A2997 RMK A01 T00041048  RH  068%=      5-min Rain = 0
KBR1 130658Z 24001KT 00/M05 A2997 RMK A01 T00041048  RH  068%=      5-min Rain = 0
KBR1 130659Z 25002KT 01/M05 A2997 RMK A01 T00051047  RH  068%=      5-min Rain = 0
KBR1 130700Z 24001KT 01/M05 A2997 RMK A01 T00051047  RH  068%=      5-min Rain = 0
KBR1 130701Z 25001KT 01/M05 A2997 RMK A01 T00051048  RH  068%=      5-min Rain = 0
KBR1 130702Z 27002KT 00/M05 A2997 RMK A01 T00041049  RH  067%=      5-min Rain = 0
KBR1 130703Z 28002KT 00/M05 A2997 RMK A01 T00041050  RH  067%=      5-min Rain = 0
KBR1 130704Z 30002KT 00/M05 A2998 RMK A01 T00021051  RH  068%=      5-min Rain = 0
KBR1 130705Z 31001KT M00/M05 A2998 RMK A01 T10011052  RH  068%=      5-min Rain = 0
KBR1 130706Z 00000KT M00/M05 A2998 RMK A01 T10041053  RH  069%=      5-min Rain = 0
KBR1 130707Z 04001KT M01/M05 A2998 RMK A01 T10061053  RH  070%=      5-min Rain = 0
KBR1 130708Z 00001KT M01/M05 A2997 RMK A01 T10081053  RH  071%=      5-min Rain = 0
KBR1 130709Z 36001KT M01/M05 A2997 RMK A01 T10091052  RH  072%=      5-min Rain = 0
KBR1 130710Z 34001KT M01/M05 A2997 RMK A01 T10091051  RH  073%=      5-min Rain = 0
KBR1 130711Z 35001KT M01/M05 A2997 RMK A01 T10091051  RH  073%=      5-min Rain = 0
KBR1 130712Z 34001KT M01/M05 A2997 RMK A01 T10091050  RH  073%=      5-min Rain = 0
KBR1 130713Z 36001KT M01/M05 A2997 RMK A01 T10081050  RH  073%=      5-min Rain = 0
KBR1 130714Z 34001KT M01/M05 A2997 RMK A01 T10081049  RH  073%=      5-min Rain = 0
KBR1 130715Z 34001KT M01/M05 A2997 RMK A01 T10061049  RH  073%=      5-min Rain = 0
KBR1 130716Z 36001KT M00/M05 A2997 RMK A01 T10041048  RH  072%=      5-min Rain = 0
KBR1 130717Z 35001KT M00/M05 A2997 RMK A01 T10031048  RH  071%=      5-min Rain = 0
KBR1 130718Z 35001KT M00/M05 A2997 RMK A01 T10011048  RH  071%=      5-min Rain = 0
KBR1 130719Z 36001KT 00/05 A2997 RMK A01 T00-00-48  RH  070%=      5-min Rain = 0
KBR1 130720Z 01001KT 00/M05 A2996 RMK A01 T00011048  RH  070%=      5-min Rain = 0
KBR1 130721Z 36001KT 00/M05 A2996 RMK A01 T00011049  RH  069%=      5-min Rain = 0
KBR1 130722Z 35002KT 00/M05 A2996 RMK A01 T00031048  RH  069%=      5-min Rain = 0
KBR1 130723Z 35002KT 00/M05 A2996 RMK A01 T00031049  RH  068%=      5-min Rain = 0
KBR1 130724Z 34001KT 01/M05 A2996 RMK A01 T00051048  RH  068%=      5-min Rain = 0
KBR1 130725Z 32001KT 01/M05 A2996 RMK A01 T00061048  RH  067%=      5-min Rain = 0
KBR1 130726Z 33001KT 01/M05 A2996 RMK A01 T00061049  RH  067%=      5-min Rain = 0
KBR1 130727Z 32001KT 01/M05 A2996 RMK A01 T00061049  RH  066%=      5-min Rain = 0
KBR1 130728Z 33001KT 01/M05 A2997 RMK A01 T00071049  RH  066%=      5-min Rain = 0
KBR1 130729Z 33002KT 01/M05 A2997 RMK A01 T00071050  RH  066%=      5-min Rain = 0
KBR1 130730Z 34002KT 00/M05 A2996 RMK A01 T00041052  RH  066%=      5-min Rain = 0
KBR1 130731Z 33002KT 00/M05 A2996 RMK A01 T00011052  RH  067%=      5-min Rain = 0
KBR1 130732Z 30002KT 00/05 A2996 RMK A01 T00-00-51  RH  068%=      5-min Rain = 0
KBR1 130733Z 29002KT 00/05 A2996 RMK A01 T00000-51  RH  069%=      5-min Rain = 0
KBR1 130734Z 30002KT 00/05 A2996 RMK A01 T00-00-51  RH  069%=      5-min Rain = 0
KBR1 130735Z 29003KT 00/M05 A2996 RMK A01 T00011050  RH  069%=      5-min Rain = 0
KBR1 130736Z 28003KT 00/M05 A2996 RMK A01 T00011050  RH  069%=      5-min Rain = 0
KBR1 130737Z 28003KT 00/M05 A2996 RMK A01 T00011050  RH  068%=      5-min Rain = 0
KBR1 130738Z 28004KT 00/M05 A2996 RMK A01 T00011050  RH  068%=      5-min Rain = 0
KBR1 130739Z 28005KT 00/M05 A2996 RMK A01 T00011050  RH  068%=      5-min Rain = 0
KBR1 130740Z 27005KT 00/05 A2996 RMK A01 T00000-51  RH  069%=      5-min Rain = 0
KBR1 130741Z 27006KT M00/M05 A2996 RMK A01 T10011051  RH  069%=      5-min Rain = 0
KBR1 130742Z 27007KT M00/M05 A2996 RMK A01 T10031051  RH  070%=      5-min Rain = 0
KBR1 130743Z 27007KT M00/M05 A2996 RMK A01 T10041052  RH  070%=      5-min Rain = 0
KBR1 130744Z 26008KT M01/M05 A2996 RMK A01 T10061053  RH  070%=      5-min Rain = 0
KBR1 130745Z 26008KT M01/M05 A2996 RMK A01 T10071051  RH  072%=      5-min Rain = 0
KBR1 130746Z 26008KT M01/M05 A2996 RMK A01 T10081051  RH  072%=      5-min Rain = 0
KBR1 130747Z 26008KT M01/M05 A2996 RMK A01 T10081051  RH  072%=      5-min Rain = 0
KBR1 130748Z 26008KT M01/M05 A2996 RMK A01 T10071051  RH  072%=      5-min Rain = 0
KBR1 130749Z 26008KT M01/M05 A2996 RMK A01 T10061051  RH  072%=      5-min Rain = 0
KBR1 130750Z 26008KT M01/M06 A2996 RMK A01 T10101055  RH  071%=      5-min Rain = 0
KBR1 130751Z 26008KT M01/M06 A2996 RMK A01 T10121056  RH  072%=      5-min Rain = 0
KBR1 130752Z 26008KT M01/M05 A2996 RMK A01 T10111053  RH  073%=      5-min Rain = 0
KBR1 130753Z 26008KT M01/M05 A2996 RMK A01 T10081051  RH  073%=      5-min Rain = 0
KBR1 130754Z 26008KT M01/M05 A2996 RMK A01 T10061050  RH  072%=      5-min Rain = 0
KBR1 130755Z 26008KT M01/M05 A2996 RMK A01 T10051049  RH  072%=      5-min Rain = 0
KBR1 130756Z 26007KT M01/M05 A2996 RMK A01 T10051052  RH  071%=      5-min Rain = 0
KBR1 130757Z 25007KT M01/M05 A2996 RMK A01 T10061052  RH  071%=      5-min Rain = 0
KBR1 130758Z 25007KT M01/M05 A2996 RMK A01 T10061051  RH  071%=      5-min Rain = 0
KBR1 130759Z 25007KT M01/M05 A2996 RMK A01 T10051051  RH  071%=      5-min Rain = 0
KBR1 130800Z 25006KT M00/M05 A2996 RMK A01 T10041051  RH  070%=      5-min Rain = 0
KBR1 130801Z 25006KT M00/M05 A2996 RMK A01 T10041052  RH  070%=      5-min Rain = 0
KBR1 130802Z 25006KT M00/M05 A2996 RMK A01 T10031051  RH  070%=      5-min Rain = 0
KBR1 130803Z 24006KT M00/M05 A2996 RMK A01 T10021052  RH  069%=      5-min Rain = 0
KBR1 130804Z 26005KT M00/M05 A2996 RMK A01 T10021053  RH  069%=      5-min Rain = 0
KBR1 130805Z 27005KT M00/M05 A2996 RMK A01 T10041054  RH  069%=      5-min Rain = 0
KBR1 130806Z 24005KT M00/M05 A2996 RMK A01 T10041053  RH  070%=      5-min Rain = 0
KBR1 130807Z 24006KT 00/05 A2996 RMK A01 T00-00-49  RH  069%=      5-min Rain = 0
KBR1 130808Z 23006KT 00/M05 A2996 RMK A01 T00031049  RH  068%=      5-min Rain = 0
KBR1 130809Z 23006KT 00/M05 A2996 RMK A01 T00031050  RH  068%=      5-min Rain = 0
KBR1 130810Z 23006KT 00/M05 A2996 RMK A01 T00041050  RH  067%=      5-min Rain = 0
KBR1 130811Z 23005KT 00/M05 A2996 RMK A01 T00041050  RH  067%=      5-min Rain = 0
KBR1 130812Z 23005KT 00/M05 A2996 RMK A01 T00041050  RH  067%=      5-min Rain = 0
KBR1 130813Z 22005KT 00/M05 A2995 RMK A01 T00041051  RH  067%=      5-min Rain = 0
KBR1 130814Z 23005KT 00/M05 A2995 RMK A01 T00031051  RH  067%=      5-min Rain = 0
KBR1 130815Z 23004KT 00/M05 A2995 RMK A01 T00031052  RH  067%=      5-min Rain = 0
KBR1 130816Z 23004KT 00/M05 A2995 RMK A01 T00031051  RH  067%=      5-min Rain = 0
KBR1 130817Z 22005KT 00/M05 A2995 RMK A01 T00031051  RH  067%=      5-min Rain = 0
KBR1 130818Z 23006KT 00/M05 A2995 RMK A01 T00031051  RH  067%=      5-min Rain = 0
KBR1 130819Z 23007KT 00/M05 A2995 RMK A01 T00031051  RH  067%=      5-min Rain = 0
KBR1 130820Z 24008KT 00/M05 A2995 RMK A01 T00031051  RH  067%=      5-min Rain = 0
KBR1 130821Z 23007KT 01/M05 A2995 RMK A01 T00061049  RH  066%=      5-min Rain = 0
KBR1 130822Z 24008KT 01/M05 A2995 RMK A01 T00091049  RH  065%=      5-min Rain = 0
KBR1 130823Z 24007KT 01/M05 A2995 RMK A01 T00101050  RH  064%=      5-min Rain = 0
KBR1 130824Z 23008KT 01/M05 A2995 RMK A01 T00101051  RH  064%=      5-min Rain = 0
KBR1 130825Z 23008KT 01/M05 A2995 RMK A01 T00111051  RH  063%=      5-min Rain = 0
KBR1 130826Z 23008KT 01/M05 A2995 RMK A01 T00111051  RH  063%=      5-min Rain = 0
KBR1 130827Z 23007KT 01/M05 A2995 RMK A01 T00131050  RH  063%=      5-min Rain = 0
KBR1 130828Z 23007KT 01/M05 A2995 RMK A01 T00141050  RH  062%=      5-min Rain = 0
KBR1 130829Z 23007KT 01/M05 A2995 RMK A01 T00141051  RH  062%=      5-min Rain = 0
KBR1 130830Z 23007KT 01/M05 A2995 RMK A01 T00131052  RH  062%=      5-min Rain = 0
KBR1 130831Z 23007KT 01/M05 A2995 RMK A01 T00121052  RH  062%=      5-min Rain = 0
KBR1 130832Z 23008KT 01/M05 A2995 RMK A01 T00131051  RH  063%=      5-min Rain = 0
KBR1 130833Z 23008KT 01/M05 A2995 RMK A01 T00131050  RH  063%=      5-min Rain = 0
KBR1 130834Z 23007KT 01/M05 A2995 RMK A01 T00131051  RH  063%=      5-min Rain = 0
KBR1 130835Z 23007KT 01/M05 A2995 RMK A01 T00111051  RH  063%=      5-min Rain = 0
KBR1 130836Z 23007KT 01/M05 A2995 RMK A01 T00091051  RH  064%=      5-min Rain = 0
KBR1 130837Z 23008KT 01/M05 A2995 RMK A01 T00091051  RH  064%=      5-min Rain = 0
KBR1 130838Z 23008KT 01/M05 A2995 RMK A01 T00101050  RH  064%=      5-min Rain = 0
KBR1 130839Z 23008KT 01/M05 A2995 RMK A01 T00091051  RH  064%=      5-min Rain = 0
KBR1 130840Z 23007KT 01/M05 A2995 RMK A01 T00081051  RH  065%=      5-min Rain = 0
KBR1 130841Z 23007KT 01/M05 A2995 RMK A01 T00071051  RH  065%=      5-min Rain = 0
KBR1 130842Z 23008KT 01/M05 A2995 RMK A01 T00071051  RH  065%=      5-min Rain = 0
KBR1 130843Z 23008KT 01/M05 A2995 RMK A01 T00081050  RH  065%=      5-min Rain = 0
KBR1 130844Z 22008KT 01/M05 A2995 RMK A01 T00081050  RH  065%=      5-min Rain = 0
KBR1 130845Z 22007KT 01/M05 A2995 RMK A01 T00061051  RH  066%=      5-min Rain = 0
KBR1 130846Z 23007KT 00/M05 A2995 RMK A01 T00031052  RH  066%=      5-min Rain = 0
KBR1 130847Z 23008KT 00/M05 A2995 RMK A01 T00031051  RH  067%=      5-min Rain = 0
KBR1 130848Z 23008KT 00/M05 A2995 RMK A01 T00031051  RH  067%=      5-min Rain = 0
KBR1 130849Z 23008KT 00/M05 A2995 RMK A01 T00021052  RH  067%=      5-min Rain = 0
KBR1 130850Z 23009KT 00/M05 A2995 RMK A01 T00011052  RH  067%=      5-min Rain = 0
KBR1 130851Z 23009KT 00/M05 A2994 RMK A01 T00021051  RH  068%=      5-min Rain = 0
KBR1 130852Z 23009KT 00/M05 A2995 RMK A01 T00011051  RH  068%=      5-min Rain = 0
KBR1 130853Z 23009KT 00/M05 A2995 RMK A01 T00011051  RH  068%=      5-min Rain = 0
KBR1 130854Z 23009KT 00/M05 A2995 RMK A01 T00011052  RH  068%=      5-min Rain = 0
KBR1 130855Z 22009KT 00/M05 A2995 RMK A01 T00011052  RH  068%=      5-min Rain = 0
KBR1 130856Z 23010KT M00/M05 A2995 RMK A01 T10011052  RH  068%=      5-min Rain = 0
KBR1 130857Z 23009KT M00/M05 A2995 RMK A01 T10021051  RH  069%=      5-min Rain = 0
KBR1 130858Z 22009KT M00/M05 A2995 RMK A01 T10011050  RH  070%=      5-min Rain = 0
KBR1 130859Z 22009KT M00/M05 A2995 RMK A01 T10011050  RH  070%=      5-min Rain = 0
KBR1 130900Z 22009KT 00/05 A2994 RMK A01 T00-00-49  RH  070%=      5-min Rain = 0
KBR1 130901Z 21009KT 00/05 A2994 RMK A01 T00-00-48  RH  070%=      5-min Rain = 0
KBR1 130902Z 21009KT 00/05 A2994 RMK A01 T00-00-48  RH  070%=      5-min Rain = 0
KBR1 130903Z 22009KT 00/05 A2995 RMK A01 T00-00-48  RH  070%=      5-min Rain = 0
KBR1 130904Z 22009KT 00/05 A2995 RMK A01 T00-00-47  RH  071%=      5-min Rain = 0
KBR1 130905Z 22010KT M00/M05 A2995 RMK A01 T10011048  RH  071%=      5-min Rain = 0
KBR1 130906Z 22009KT M00/M05 A2995 RMK A01 T10011047  RH  071%=      5-min Rain = 0
KBR1 130907Z 22009KT 00/M05 A2995 RMK A01 T00011045  RH  071%=      5-min Rain = 0
KBR1 130908Z 23010KT 00/M04 A2995 RMK A01 T00041044  RH  070%=      5-min Rain = 0
KBR1 130909Z 23009KT 01/M04 A2995 RMK A01 T00071044  RH  069%=      5-min Rain = 0
KBR1 130910Z 24009KT 01/M04 A2995 RMK A01 T00091044  RH  068%=      5-min Rain = 0
KBR1 130911Z 24011KT 01/M04 A2995 RMK A01 T00091044  RH  067%=      5-min Rain = 0
KBR1 130912Z 23009KT 02/M04 A2995 RMK A01 T00161040  RH  066%=      5-min Rain = 0
KBR1 130913Z 22007KT 02/M04 A2995 RMK A01 T00191039  RH  066%=      5-min Rain = 0
KBR1 130914Z 23008KT 02/M04 A2994 RMK A01 T00181040  RH  065%=      5-min Rain = 0
KBR1 130915Z 23010KT 02/M04 A2994 RMK A01 T00171041  RH  066%=      5-min Rain = 0
KBR1 130916Z 23008KT 02/M04 A2994 RMK A01 T00161041  RH  066%=      5-min Rain = 0
KBR1 130917Z 22009KT 02/M04 A2994 RMK A01 T00151042  RH  066%=      5-min Rain = 0
KBR1 130918Z 21009KT 01/M04 A2994 RMK A01 T00141043  RH  066%=      5-min Rain = 0
KBR1 130919Z 21009KT 01/M05 A2994 RMK A01 T00121045  RH  066%=      5-min Rain = 0
KBR1 130920Z 20009KT 01/M05 A2994 RMK A01 T00091046  RH  067%=      5-min Rain = 0
KBR1 130926Z 20006KT 00/M05 A2994 RMK A01 T00011047  RH  070%=      5-min Rain = 0
KBR1 130927Z 20006KT 00/M05 A2994 RMK A01 T00011047  RH  071%=      5-min Rain = 0
KBR1 130928Z 20007KT 00/M05 A2994 RMK A01 T00011046  RH  070%=      5-min Rain = 0
KBR1 130929Z 20007KT 00/M05 A2995 RMK A01 T00011047  RH  070%=      5-min Rain = 0
KBR1 130930Z 20006KT 00/M05 A2995 RMK A01 T00011047  RH  070%=      5-min Rain = 0
KBR1 130931Z 19007KT M00/M05 A2994 RMK A01 T10011048  RH  070%=      5-min Rain = 0
KBR1 130932Z 19007KT 00/M05 A2994 RMK A01 T00011047  RH  070%=      5-min Rain = 0
KBR1 130933Z 19007KT 00/M05 A2994 RMK A01 T00021046  RH  070%=      5-min Rain = 0
KBR1 130934Z 19006KT 00/M05 A2994 RMK A01 T00031046  RH  070%=      5-min Rain = 0
KBR1 130935Z 19007KT 00/M05 A2994 RMK A01 T00031047  RH  069%=      5-min Rain = 0
KBR1 130936Z 19006KT 00/M05 A2995 RMK A01 T00031046  RH  070%=      5-min Rain = 0
KBR1 130937Z 20005KT 00/M05 A2995 RMK A01 T00021046  RH  070%=      5-min Rain = 0
KBR1 130938Z 19005KT 00/M05 A2995 RMK A01 T00021047  RH  070%=      5-min Rain = 0
KBR1 130939Z 19005KT 00/M05 A2995 RMK A01 T00011047  RH  070%=      5-min Rain = 0
KBR1 130940Z 18006KT 00/05 A2995 RMK A01 T00-00-47  RH  071%=      5-min Rain = 0
KBR1 130941Z 18006KT M00/M05 A2995 RMK A01 T10011047  RH  071%=      5-min Rain = 0
KBR1 130942Z 19007KT M00/M05 A2995 RMK A01 T10021048  RH  071%=      5-min Rain = 0
KBR1 130943Z 19006KT M00/M05 A2995 RMK A01 T10031048  RH  071%=      5-min Rain = 0
KBR1 130944Z 19004KT M00/M05 A2995 RMK A01 T10041048  RH  072%=      5-min Rain = 0
KBR1 130945Z 19003KT M01/M05 A2995 RMK A01 T10051049  RH  072%=      5-min Rain = 0
KBR1 130946Z 19002KT M01/M05 A2995 RMK A01 T10051049  RH  072%=      5-min Rain = 0
KBR1 130947Z 17003KT M01/M05 A2995 RMK A01 T10061049  RH  072%=      5-min Rain = 0
KBR1 130948Z 17002KT M01/M05 A2995 RMK A01 T10061049  RH  072%=      5-min Rain = 0
KBR1 130949Z 17001KT M01/M05 A2995 RMK A01 T10071050  RH  072%=      5-min Rain = 0
KBR1 130950Z 17002KT M01/M05 A2995 RMK A01 T10081051  RH  073%=      5-min Rain = 0
KBR1 130951Z 16003KT M01/M05 A2995 RMK A01 T10091051  RH  073%=      5-min Rain = 0
KBR1 130952Z 17003KT M01/M05 A2995 RMK A01 T10091051  RH  073%=      5-min Rain = 0
KBR1 130953Z 17003KT M01/M05 A2995 RMK A01 T10091051  RH  073%=      5-min Rain = 0
KBR1 130954Z 17003KT M01/M05 A2995 RMK A01 T10091051  RH  073%=      5-min Rain = 0
KBR1 130955Z 18003KT M01/M05 A2995 RMK A01 T10101051  RH  073%=      5-min Rain = 0
KBR1 130956Z 19003KT M01/M05 A2995 RMK A01 T10101052  RH  073%=      5-min Rain = 0
KBR1 130957Z 19004KT M01/M05 A2995 RMK A01 T10101052  RH  073%=      5-min Rain = 0
KBR1 130958Z 20004KT M01/M05 A2995 RMK A01 T10121053  RH  073%=      5-min Rain = 0
KBR1 130959Z 20004KT M01/M05 A2995 RMK A01 T10131054  RH  074%=      5-min Rain = 0
KBR1 131000Z 20003KT M02/M06 A2995 RMK A01 T10151055  RH  074%=      5-min Rain = 0
KBR1 131001Z 19004KT M02/M06 A2995 RMK A01 T10161055  RH  075%=      5-min Rain = 0
KBR1 131002Z 19004KT M02/M05 A2995 RMK A01 T10161054  RH  075%=      5-min Rain = 0
KBR1 131003Z 19003KT M02/M05 A2995 RMK A01 T10171054  RH  075%=      5-min Rain = 0
KBR1 131004Z 19003KT M02/M05 A2995 RMK A01 T10171054  RH  076%=      5-min Rain = 0
KBR1 131005Z 20003KT M02/M05 A2995 RMK A01 T10171054  RH  076%=      5-min Rain = 0
KBR1 131006Z 19003KT M02/M05 A2995 RMK A01 T10171054  RH  076%=      5-min Rain = 0
KBR1 131007Z 19003KT M02/M05 A2995 RMK A01 T10171053  RH  076%=      5-min Rain = 0
KBR1 131008Z 19003KT M02/M05 A2995 RMK A01 T10171054  RH  076%=      5-min Rain = 0
KBR1 131009Z 18003KT M02/M05 A2995 RMK A01 T10171053  RH  076%=      5-min Rain = 0
KBR1 131010Z 17003KT M02/M05 A2995 RMK A01 T10171053  RH  076%=      5-min Rain = 0
KBR1 131011Z 18004KT M02/M05 A2994 RMK A01 T10171053  RH  076%=      5-min Rain = 0
KBR1 131012Z 18004KT M02/M05 A2994 RMK A01 T10171054  RH  076%=      5-min Rain = 0
KBR1 131013Z 18004KT M02/M05 A2994 RMK A01 T10171054  RH  076%=      5-min Rain = 0
KBR1 131014Z 18004KT M02/M06 A2994 RMK A01 T10181055  RH  076%=      5-min Rain = 0
KBR1 131015Z 19005KT M02/M06 A2994 RMK A01 T10201056  RH  076%=      5-min Rain = 0
KBR1 131016Z 20005KT M02/M06 A2994 RMK A01 T10211057  RH  077%=      5-min Rain = 0
KBR1 131017Z 20004KT M02/M06 A2994 RMK A01 T10221056  RH  077%=      5-min Rain = 0
KBR1 131018Z 20005KT M02/M06 A2994 RMK A01 T10221055  RH  078%=      5-min Rain = 0
KBR1 131019Z 21005KT M02/M06 A2994 RMK A01 T10221055  RH  078%=      5-min Rain = 0
KBR1 131020Z 22004KT M02/M06 A2994 RMK A01 T10231055  RH  079%=      5-min Rain = 0
KBR1 131021Z 22004KT M02/M05 A2994 RMK A01 T10221053  RH  079%=      5-min Rain = 0
KBR1 131022Z 22005KT M02/M05 A2994 RMK A01 T10211052  RH  079%=      5-min Rain = 0
KBR1 131023Z 22004KT M02/M05 A2994 RMK A01 T10171050  RH  078%=      5-min Rain = 0
KBR1 131024Z 23004KT M02/M05 A2994 RMK A01 T10151051  RH  076%=      5-min Rain = 0
KBR1 131025Z 23003KT M02/M05 A2994 RMK A01 T10151052  RH  076%=      5-min Rain = 0
KBR1 131026Z 22002KT M01/M05 A2994 RMK A01 T10131052  RH  075%=      5-min Rain = 0
KBR1 131027Z 23003KT M02/M06 A2994 RMK A01 T10171056  RH  074%=      5-min Rain = 0
KBR1 131028Z 24003KT M02/M06 A2994 RMK A01 T10181055  RH  076%=      5-min Rain = 0
KBR1 131029Z 23003KT M02/M05 A2994 RMK A01 T10161052  RH  077%=      5-min Rain = 0
KBR1 131030Z 22002KT M02/M05 A2994 RMK A01 T10161053  RH  076%=      5-min Rain = 0
KBR1 131031Z 22003KT M02/M05 A2994 RMK A01 T10161053  RH  076%=      5-min Rain = 0
KBR1 131032Z 23003KT M01/M05 A2994 RMK A01 T10141051  RH  076%=      5-min Rain = 0
KBR1 131033Z 24004KT M01/M05 A2994 RMK A01 T10111050  RH  075%=      5-min Rain = 0
KBR1 131034Z 24004KT M01/M05 A2994 RMK A01 T10081049  RH  074%=      5-min Rain = 0
KBR1 131035Z 24005KT M01/M05 A2994 RMK A01 T10071050  RH  073%=      5-min Rain = 0
KBR1 131036Z 24005KT M00/M05 A2994 RMK A01 T10041049  RH  072%=      5-min Rain = 0
KBR1 131037Z 24005KT M00/M05 A2994 RMK A01 T10031050  RH  071%=      5-min Rain = 0
KBR1 131038Z 23005KT M00/M05 A2994 RMK A01 T10031050  RH  070%=      5-min Rain = 0
KBR1 131039Z 22005KT M00/M05 A2994 RMK A01 T10041051  RH  071%=      5-min Rain = 0
KBR1 131040Z 22005KT M00/M05 A2994 RMK A01 T10031049  RH  071%=      5-min Rain = 0
KBR1 131041Z 20005KT M00/M05 A2994 RMK A01 T10011048  RH  071%=      5-min Rain = 0
KBR1 131042Z 18005KT M00/M05 A2994 RMK A01 T10011048  RH  071%=      5-min Rain = 0
KBR1 131043Z 17004KT M00/M05 A2994 RMK A01 T10031049  RH  071%=      5-min Rain = 0
KBR1 131044Z 17004KT M01/M05 A2994 RMK A01 T10071053  RH  071%=      5-min Rain = 0
KBR1 131045Z 17005KT M01/M06 A2994 RMK A01 T10131056  RH  073%=      5-min Rain = 0
KBR1 131046Z 17005KT M02/M06 A2994 RMK A01 T10171056  RH  074%=      5-min Rain = 0
KBR1 131047Z 17005KT M02/M06 A2994 RMK A01 T10191056  RH  076%=      5-min Rain = 0
KBR1 131048Z 16005KT M02/M06 A2994 RMK A01 T10221056  RH  078%=      5-min Rain = 0
KBR1 131049Z 16005KT M02/M06 A2994 RMK A01 T10241056  RH  079%=      5-min Rain = 0
KBR1 131050Z 17005KT M03/M06 A2994 RMK A01 T10261056  RH  080%=      5-min Rain = 0
KBR1 131051Z 18005KT M03/M06 A2994 RMK A01 T10261055  RH  081%=      5-min Rain = 0
KBR1 131052Z 17003KT M02/M05 A2994 RMK A01 T10221050  RH  081%=      5-min Rain = 0
KBR1 131053Z 19003KT M02/M05 A2994 RMK A01 T10211051  RH  080%=      5-min Rain = 0
KBR1 131054Z 19004KT M02/M05 A2994 RMK A01 T10211051  RH  080%=      5-min Rain = 0
KBR1 131055Z 21003KT M02/M05 A2994 RMK A01 T10211051  RH  080%=      5-min Rain = 0
KBR1 131056Z 22003KT M02/M05 A2994 RMK A01 T10181048  RH  080%=      5-min Rain = 0
KBR1 131057Z 23003KT M01/M05 A2994 RMK A01 T10131046  RH  079%=      5-min Rain = 0
KBR1 131058Z 24004KT M01/M04 A2993 RMK A01 T10081044  RH  077%=      5-min Rain = 0
KBR1 131059Z 24004KT M00/M04 A2993 RMK A01 T10021042  RH  075%=      5-min Rain = 0
KBR1 131100Z 24004KT 00/M04 A2993 RMK A01 T00041041  RH  072%=      5-min Rain = 0
KBR1 131101Z 24004KT 01/M04 A2993 RMK A01 T00071043  RH  069%=      5-min Rain = 0
KBR1 131102Z 26005KT 01/M04 A2993 RMK A01 T00081044  RH  068%=      5-min Rain = 0
KBR1 131103Z 26005KT 01/M04 A2993 RMK A01 T00141042  RH  067%=      5-min Rain = 0
KBR1 131104Z 26005KT 02/M04 A2993 RMK A01 T00171042  RH  065%=      5-min Rain = 0
KBR1 131105Z 27004KT 02/M04 A2993 RMK A01 T00191042  RH  064%=      5-min Rain = 0
KBR1 131106Z 27004KT 02/M04 A2993 RMK A01 T00201043  RH  063%=      5-min Rain = 0
KBR1 131107Z 27005KT 02/M04 A2993 RMK A01 T00211043  RH  062%=      5-min Rain = 0
KBR1 131108Z 27005KT 02/M04 A2993 RMK A01 T00231042  RH  062%=      5-min Rain = 0
KBR1 131109Z 27005KT 03/M04 A2993 RMK A01 T00251042  RH  061%=      5-min Rain = 0
KBR1 131110Z 27006KT 03/M04 A2993 RMK A01 T00261041  RH  061%=      5-min Rain = 0
KBR1 131111Z 27006KT 03/M04 A2993 RMK A01 T00271041  RH  061%=      5-min Rain = 0
KBR1 131112Z 27006KT 03/M04 A2993 RMK A01 T00281040  RH  060%=      5-min Rain = 0
KBR1 131113Z 27006KT 03/M04 A2993 RMK A01 T00301040  RH  060%=      5-min Rain = 0
KBR1 131114Z 27006KT 03/M04 A2993 RMK A01 T00301040  RH  060%=      5-min Rain = 0
KBR1 131115Z 27006KT 03/M04 A2993 RMK A01 T00301040  RH  060%=      5-min Rain = 0
KBR1 131116Z 26005KT 03/M04 A2993 RMK A01 T00291039  RH  061%=      5-min Rain = 0
KBR1 131117Z 25004KT 03/M04 A2993 RMK A01 T00281039  RH  061%=      5-min Rain = 0
KBR1 131118Z 26003KT 02/M05 A2993 RMK A01 T00231045  RH  061%=      5-min Rain = 0
KBR1 131119Z 26004KT 02/M05 A2993 RMK A01 T00191047  RH  061%=      5-min Rain = 0
KBR1 131120Z 27005KT 02/M05 A2993 RMK A01 T00191045  RH  063%=      5-min Rain = 0
KBR1 131121Z 28005KT 02/M04 A2993 RMK A01 T00241039  RH  063%=      5-min Rain = 0
KBR1 131122Z 29005KT 03/M04 A2993 RMK A01 T00301035  RH  062%=      5-min Rain = 0
KBR1 131123Z 29005KT 03/M04 A2993 RMK A01 T00331036  RH  061%=      5-min Rain = 0
KBR1 131124Z 30006KT 03/M04 A2993 RMK A01 T00341036  RH  060%=      5-min Rain = 0
KBR1 131125Z 30006KT 03/M04 A2993 RMK A01 T00331040  RH  059%=      5-min Rain = 0
KBR1 131126Z 30006KT 02/M05 A2993 RMK A01 T00241047  RH  060%=      5-min Rain = 0
KBR1 131127Z 30006KT 02/M05 A2993 RMK A01 T00161048  RH  062%=      5-min Rain = 0
KBR1 131128Z 31005KT 01/M05 A2993 RMK A01 T00111047  RH  065%=      5-min Rain = 0
KBR1 131129Z 31005KT 01/M05 A2993 RMK A01 T00111045  RH  067%=      5-min Rain = 0
KBR1 131130Z 31005KT 01/M04 A2993 RMK A01 T00121044  RH  066%=      5-min Rain = 0
KBR1 131131Z 32004KT 01/M04 A2993 RMK A01 T00131044  RH  066%=      5-min Rain = 0
KBR1 131132Z 32005KT 01/M04 A2993 RMK A01 T00141043  RH  066%=      5-min Rain = 0
KBR1 131133Z 33005KT 01/M04 A2993 RMK A01 T00141044  RH  065%=      5-min Rain = 0
KBR1 131134Z 33006KT 02/M04 A2993 RMK A01 T00151043  RH  065%=      5-min Rain = 0
KBR1 131135Z 33006KT 02/M04 A2993 RMK A01 T00171042  RH  065%=      5-min Rain = 0
KBR1 131136Z 33006KT 02/M04 A2993 RMK A01 T00181042  RH  064%=      5-min Rain = 0
KBR1 131137Z 33005KT 02/M04 A2993 RMK A01 T00191042  RH  064%=      5-min Rain = 0
KBR1 131138Z 33005KT 02/M04 A2993 RMK A01 T00201041  RH  064%=      5-min Rain = 0
KBR1 131139Z 33006KT 02/M04 A2993 RMK A01 T00211040  RH  064%=      5-min Rain = 0
KBR1 131140Z 33006KT 02/M04 A2993 RMK A01 T00231039  RH  064%=      5-min Rain = 0
KBR1 131141Z 33007KT 02/M04 A2993 RMK A01 T00231039  RH  064%=      5-min Rain = 0
KBR1 131142Z 32007KT 02/M04 A2993 RMK A01 T00231038  RH  064%=      5-min Rain = 0
KBR1 131143Z 32007KT 03/M04 A2993 RMK A01 T00251037  RH  064%=      5-min Rain = 0
KBR1 131144Z 32007KT 03/M04 A2993 RMK A01 T00271036  RH  064%=      5-min Rain = 0
KBR1 131145Z 32007KT 03/M04 A2993 RMK A01 T00271036  RH  063%=      5-min Rain = 0
KBR1 131146Z 32007KT 03/M04 A2993 RMK A01 T00281036  RH  063%=      5-min Rain = 0
KBR1 131147Z 32007KT 03/M04 A2993 RMK A01 T00281036  RH  063%=      5-min Rain = 0
KBR1 131148Z 32007KT 03/M04 A2993 RMK A01 T00281035  RH  063%=      5-min Rain = 0
KBR1 131149Z 32008KT 03/M04 A2993 RMK A01 T00281035  RH  063%=      5-min Rain = 0
KBR1 131150Z 32009KT 03/M04 A2993 RMK A01 T00281036  RH  063%=      5-min Rain = 0
KBR1 131151Z 32009KT 03/M04 A2993 RMK A01 T00291035  RH  063%=      5-min Rain = 0
KBR1 131152Z 32008KT 03/M04 A2992 RMK A01 T00301035  RH  063%=      5-min Rain = 0
KBR1 131153Z 32008KT 03/M03 A2992 RMK A01 T00301034  RH  063%=      5-min Rain = 0
KBR1 131154Z 32008KT 03/M03 A2992 RMK A01 T00301034  RH  063%=      5-min Rain = 0
KBR1 131155Z 31008KT 03/M04 A2992 RMK A01 T00301035  RH  062%=      5-min Rain = 0
KBR1 131156Z 31008KT 03/M04 A2992 RMK A01 T00311035  RH  062%=      5-min Rain = 0
KBR1 131157Z 31008KT 03/M04 A2992 RMK A01 T00321035  RH  061%=      5-min Rain = 0
KBR1 131158Z 31008KT 03/M04 A2992 RMK A01 T00331035  RH  061%=      5-min Rain = 0
KBR1 131159Z 31008KT 03/M04 A2992 RMK A01 T00331035  RH  061%=      5-min Rain = 0
KBR1 131200Z 31008KT 03/M04 A2992 RMK A01 T00331035  RH  061%=      5-min Rain = 0
KBR1 131201Z 30007KT 03/M03 A2992 RMK A01 T00331034  RH  061%=      5-min Rain = 0
KBR1 131202Z 30007KT 03/M04 A2992 RMK A01 T00331035  RH  061%=      5-min Rain = 0
KBR1 131203Z 30007KT 03/M04 A2992 RMK A01 T00331035  RH  061%=      5-min Rain = 0
KBR1 131204Z 30007KT 03/M04 A2992 RMK A01 T00321036  RH  061%=      5-min Rain = 0
KBR1 131205Z 30006KT 03/M04 A2992 RMK A01 T00321036  RH  061%=      5-min Rain = 0
KBR1 131206Z 29006KT 03/M04 A2992 RMK A01 T00301036  RH  062%=      5-min Rain = 0
KBR1 131207Z 26004KT 03/M04 A2992 RMK A01 T00291037  RH  062%=      5-min Rain = 0
KBR1 131208Z 21003KT 03/M04 A2992 RMK A01 T00261038  RH  063%=      5-min Rain = 0
KBR1 131209Z 20005KT 02/M04 A2992 RMK A01 T00211041  RH  063%=      5-min Rain = 0
KBR1 131210Z 20005KT 02/M05 A2992 RMK A01 T00151045  RH  064%=      5-min Rain = 0
KBR1 131211Z 21006KT 01/M05 A2992 RMK A01 T00091047  RH  066%=      5-min Rain = 0
KBR1 131212Z 22007KT 01/M05 A2992 RMK A01 T00061047  RH  068%=      5-min Rain = 0
KBR1 131213Z 21007KT 01/M04 A2992 RMK A01 T00081042  RH  069%=      5-min Rain = 0
KBR1 131214Z 20006KT 01/M04 A2993 RMK A01 T00121040  RH  068%=      5-min Rain = 0
KBR1 131215Z 19005KT 01/M04 A2993 RMK A01 T00111042  RH  068%=      5-min Rain = 0
KBR1 131216Z 21005KT 01/M04 A2993 RMK A01 T00101043  RH  068%=      5-min Rain = 0
KBR1 131217Z 22005KT 01/M04 A2993 RMK A01 T00111042  RH  067%=      5-min Rain = 0
KBR1 131218Z 23004KT 01/M04 A2993 RMK A01 T00131042  RH  067%=      5-min Rain = 0
KBR1 131219Z 22004KT 01/M04 A2993 RMK A01 T00141043  RH  066%=      5-min Rain = 0
KBR1 131220Z 24004KT 01/M04 A2993 RMK A01 T00141044  RH  066%=      5-min Rain = 0
KBR1 131221Z 25004KT 01/M04 A2993 RMK A01 T00131044  RH  066%=      5-min Rain = 0
KBR1 131222Z 25003KT 01/M04 A2993 RMK A01 T00131044  RH  066%=      5-min Rain = 0
KBR1 131223Z 25004KT 01/M04 A2993 RMK A01 T00131044  RH  066%=      5-min Rain = 0
KBR1 131224Z 24005KT 01/M04 A2993 RMK A01 T00141044  RH  065%=      5-min Rain = 0
KBR1 131225Z 24006KT 02/M04 A2992 RMK A01 T00161044  RH  064%=      5-min Rain = 0
KBR1 131226Z 23005KT 02/M04 A2992 RMK A01 T00171044  RH  064%=      5-min Rain = 0
KBR1 131227Z 23004KT 02/M04 A2992 RMK A01 T00171044  RH  064%=      5-min Rain = 0
KBR1 131228Z 23004KT 02/M05 A2992 RMK A01 T00151045  RH  064%=      5-min Rain = 0
KBR1 131229Z 22005KT 01/M05 A2992 RMK A01 T00131045  RH  065%=      5-min Rain = 0
KBR1 131230Z 23005KT 01/M05 A2992 RMK A01 T00121045  RH  066%=      5-min Rain = 0
KBR1 131231Z 24006KT 01/M05 A2992 RMK A01 T00101045  RH  067%=      5-min Rain = 0
KBR1 131232Z 23006KT 01/M05 A2992 RMK A01 T00091045  RH  067%=      5-min Rain = 0
KBR1 131233Z 24006KT 01/M05 A2992 RMK A01 T00061046  RH  068%=      5-min Rain = 0
KBR1 131234Z 24006KT 00/M05 A2992 RMK A01 T00031047  RH  069%=      5-min Rain = 0
KBR1 131235Z 24007KT 00/M05 A2992 RMK A01 T00011047  RH  070%=      5-min Rain = 0
KBR1 131236Z 24007KT 00/M05 A2992 RMK A01 T00011046  RH  071%=      5-min Rain = 0
KBR1 131237Z 24007KT 00/M05 A2992 RMK A01 T00011045  RH  071%=      5-min Rain = 0
KBR1 131238Z 23007KT 00/M04 A2992 RMK A01 T00011044  RH  071%=      5-min Rain = 0
KBR1 131239Z 24007KT 00/M04 A2992 RMK A01 T00021044  RH  072%=      5-min Rain = 0
KBR1 131240Z 24007KT 00/M04 A2992 RMK A01 T00011044  RH  072%=      5-min Rain = 0
KBR1 131241Z 24007KT 00/05 A2992 RMK A01 T00-00-45  RH  072%=      5-min Rain = 0
KBR1 131242Z 23006KT 00/05 A2992 RMK A01 T00-00-45  RH  072%=      5-min Rain = 0
KBR1 131243Z 23006KT M00/M05 A2992 RMK A01 T10011045  RH  072%=      5-min Rain = 0
KBR1 131244Z 23006KT M00/M05 A2992 RMK A01 T10011045  RH  072%=      5-min Rain = 0
KBR1 131245Z 22006KT M00/M05 A2992 RMK A01 T10011045  RH  072%=      5-min Rain = 0
KBR1 131246Z 22006KT M00/M05 A2992 RMK A01 T10011046  RH  072%=      5-min Rain = 0
KBR1 131247Z 22006KT M00/M05 A2992 RMK A01 T10011046  RH  072%=      5-min Rain = 0
KBR1 131248Z 22006KT M00/M05 A2992 RMK A01 T10011046  RH  072%=      5-min Rain = 0
KBR1 131249Z 22006KT M00/M05 A2992 RMK A01 T10021046  RH  072%=      5-min Rain = 0
KBR1 131250Z 23006KT M00/M05 A2992 RMK A01 T10011046  RH  072%=      5-min Rain = 0
KBR1 131251Z 23006KT M00/M05 A2992 RMK A01 T10011046  RH  072%=      5-min Rain = 0
KBR1 131252Z 23006KT M00/M05 A2992 RMK A01 T10021047  RH  072%=      5-min Rain = 0
KBR1 131253Z 23007KT M00/M05 A2992 RMK A01 T10011047  RH  072%=      5-min Rain = 0
KBR1 131254Z 23007KT M00/M05 A2992 RMK A01 T10011046  RH  071%=      5-min Rain = 0
KBR1 131255Z 23007KT 00/05 A2992 RMK A01 T00-00-47  RH  071%=      5-min Rain = 0
KBR1 131256Z 23007KT M00/M05 A2992 RMK A01 T10011047  RH  071%=      5-min Rain = 0
KBR1 131257Z 24008KT 00/05 A2992 RMK A01 T00-00-46  RH  071%=      5-min Rain = 0
KBR1 131258Z 23008KT 00/M05 A2992 RMK A01 T00011045  RH  071%=      5-min Rain = 0
KBR1 131259Z 24008KT 00/M05 A2992 RMK A01 T00011045  RH  071%=      5-min Rain = 0
KBR1 131300Z 23008KT 00/M05 A2992 RMK A01 T00011046  RH  071%=      5-min Rain = 0
KBR1 131301Z 24008KT 00/M05 A2992 RMK A01 T00011046  RH  071%=      5-min Rain = 0
KBR1 131302Z 23008KT 00/M05 A2992 RMK A01 T00021045  RH  071%=      5-min Rain = 0
KBR1 131303Z 23008KT 00/M05 A2992 RMK A01 T00031045  RH  070%=      5-min Rain = 0
KBR1 131304Z 23008KT 00/M05 A2992 RMK A01 T00021046  RH  070%=      5-min Rain = 0
KBR1 131305Z 23008KT 00/M05 A2992 RMK A01 T00031045  RH  070%=      5-min Rain = 0
KBR1 131306Z 23008KT 00/M05 A2992 RMK A01 T00031045  RH  070%=      5-min Rain = 0
KBR1 131307Z 23008KT 00/M05 A2992 RMK A01 T00031045  RH  070%=      5-min Rain = 0
KBR1 131308Z 22007KT 00/M05 A2992 RMK A01 T00031046  RH  070%=      5-min Rain = 0
KBR1 131309Z 22007KT 00/M05 A2992 RMK A01 T00021046  RH  070%=      5-min Rain = 0
KBR1 131310Z 22006KT 00/M05 A2992 RMK A01 T00021045  RH  071%=      5-min Rain = 0
KBR1 131311Z 22005KT 00/M05 A2992 RMK A01 T00021045  RH  071%=      5-min Rain = 0
KBR1 131312Z 22005KT 00/M05 A2992 RMK A01 T00011046  RH  071%=      5-min Rain = 0
KBR1 131313Z 22005KT 00/05 A2992 RMK A01 T00000-46  RH  071%=      5-min Rain = 0
KBR1 131314Z 22005KT M00/M05 A2992 RMK A01 T10011046  RH  072%=      5-min Rain = 0
KBR1 131315Z 22005KT M00/M05 A2992 RMK A01 T10021046  RH  072%=      5-min Rain = 0
KBR1 131316Z 23005KT M00/M05 A2992 RMK A01 T10031046  RH  072%=      5-min Rain = 0
KBR1 131317Z 23005KT M00/M05 A2992 RMK A01 T10031046  RH  073%=      5-min Rain = 0
KBR1 131318Z 23006KT M00/M05 A2993 RMK A01 T10031045  RH  073%=      5-min Rain = 0
KBR1 131319Z 22006KT M00/M04 A2992 RMK A01 T10021044  RH  073%=      5-min Rain = 0
KBR1 131320Z 22007KT M00/M04 A2992 RMK A01 T10011043  RH  073%=      5-min Rain = 0
KBR1 131321Z 22007KT 00/M04 A2992 RMK A01 T00021042  RH  072%=      5-min Rain = 0
KBR1 131322Z 22007KT 01/M04 A2992 RMK A01 T00061039  RH  072%=      5-min Rain = 0
KBR1 131323Z 23007KT 01/M04 A2992 RMK A01 T00121037  RH  070%=      5-min Rain = 0
KBR1 131324Z 22007KT 01/M04 A2992 RMK A01 T00141038  RH  068%=      5-min Rain = 0
KBR1 131325Z 22007KT 02/M04 A2992 RMK A01 T00161039  RH  067%=      5-min Rain = 0
KBR1 131326Z 22006KT 02/M04 A2992 RMK A01 T00171038  RH  067%=      5-min Rain = 0
KBR1 131327Z 22006KT 02/M04 A2992 RMK A01 T00201037  RH  066%=      5-min Rain = 0
KBR1 131328Z 22006KT 02/M04 A2992 RMK A01 T00201039  RH  065%=      5-min Rain = 0
KBR1 131329Z 23006KT 02/M04 A2992 RMK A01 T00201039  RH  065%=      5-min Rain = 0
KBR1 131330Z 24006KT 02/M04 A2992 RMK A01 T00191040  RH  065%=      5-min Rain = 0
KBR1 131331Z 24006KT 02/M04 A2992 RMK A01 T00191040  RH  065%=      5-min Rain = 0
KBR1 131332Z 23005KT 02/M04 A2992 RMK A01 T00181041  RH  065%=      5-min Rain = 0
KBR1 131333Z 24005KT 02/M04 A2992 RMK A01 T00151043  RH  065%=      5-min Rain = 0
KBR1 131334Z 25004KT 01/M04 A2992 RMK A01 T00141041  RH  067%=      5-min Rain = 0
KBR1 131335Z 25004KT 02/M04 A2992 RMK A01 T00181038  RH  067%=      5-min Rain = 0
KBR1 131336Z 25003KT 02/M04 A2992 RMK A01 T00201038  RH  066%=      5-min Rain = 0
KBR1 131337Z 26003KT 02/M04 A2992 RMK A01 T00221038  RH  065%=      5-min Rain = 0
KBR1 131338Z 25002KT 02/M04 A2992 RMK A01 T00231039  RH  064%=      5-min Rain = 0
KBR1 131339Z 26003KT 02/M04 A2992 RMK A01 T00211041  RH  064%=      5-min Rain = 0
KBR1 131340Z 26003KT 02/M04 A2993 RMK A01 T00201040  RH  065%=      5-min Rain = 0
KBR1 131341Z 26004KT 02/M04 A2993 RMK A01 T00211039  RH  064%=      5-min Rain = 0
KBR1 131342Z 26004KT 02/M04 A2993 RMK A01 T00221039  RH  064%=      5-min Rain = 0
KBR1 131343Z 26004KT 03/M04 A2993 RMK A01 T00251037  RH  063%=      5-min Rain = 0
KBR1 131344Z 25004KT 03/M04 A2993 RMK A01 T00291036  RH  062%=      5-min Rain = 0
KBR1 131345Z 24004KT 03/M04 A2993 RMK A01 T00311037  RH  061%=      5-min Rain = 0
KBR1 131346Z 22004KT 03/M04 A2993 RMK A01 T00321038  RH  060%=      5-min Rain = 0
KBR1 131347Z 22004KT 03/M04 A2993 RMK A01 T00311038  RH  061%=      5-min Rain = 0
KBR1 131348Z 18005KT 03/M04 A2993 RMK A01 T00311037  RH  061%=      5-min Rain = 0
KBR1 131349Z 17007KT 03/M04 A2993 RMK A01 T00271039  RH  062%=      5-min Rain = 0
KBR1 131350Z 17008KT 02/M04 A2993 RMK A01 T00171044  RH  064%=      5-min Rain = 0
KBR1 131351Z 18008KT 01/M05 A2993 RMK A01 T00091045  RH  067%=      5-min Rain = 0
KBR1 131352Z 19006KT 01/M04 A2993 RMK A01 T00071042  RH  069%=      5-min Rain = 0
KBR1 131353Z 20006KT 01/M04 A2993 RMK A01 T00111037  RH  070%=      5-min Rain = 0
KBR1 131354Z 21005KT 02/M03 A2993 RMK A01 T00191033  RH  068%=      5-min Rain = 0
KBR1 131355Z 21005KT 02/M04 A2993 RMK A01 T00221035  RH  066%=      5-min Rain = 0
KBR1 131356Z 20004KT 02/M04 A2993 RMK A01 T00211037  RH  065%=      5-min Rain = 0
KBR1 131357Z 21003KT 02/M04 A2993 RMK A01 T00231036  RH  065%=      5-min Rain = 0
KBR1 131358Z 26005KT 02/M04 A2993 RMK A01 T00221036  RH  065%=      5-min Rain = 0
KBR1 131359Z 24003KT 03/M03 A2993 RMK A01 T00251034  RH  065%=      5-min Rain = 0
KBR1 131400Z 25002KT 03/M03 A2993 RMK A01 T00321031  RH  063%=      5-min Rain = 0
KBR1 131401Z 32002KT 03/M03 A2993 RMK A01 T00341034  RH  061%=      5-min Rain = 0
KBR1 131402Z 32001KT 03/M04 A2993 RMK A01 T00271038  RH  062%=      5-min Rain = 0
KBR1 131403Z 03002KT 02/M04 A2993 RMK A01 T00241039  RH  063%=      5-min Rain = 0
KBR1 131404Z 36001KT 02/M04 A2993 RMK A01 T00171042  RH  065%=      5-min Rain = 0
KBR1 131405Z 35002KT 02/M04 A2993 RMK A01 T00181040  RH  066%=      5-min Rain = 0
KBR1 131406Z 05002KT 02/M04 A2993 RMK A01 T00181040  RH  066%=      5-min Rain = 0
KBR1 131407Z 02001KT 01/M04 A2993 RMK A01 T00121043  RH  066%=      5-min Rain = 0
KBR1 131408Z 02001KT 02/M04 A2993 RMK A01 T00171038  RH  067%=      5-min Rain = 0
KBR1 131409Z 35003KT 02/M04 A2993 RMK A01 T00221037  RH  065%=      5-min Rain = 0
KBR1 131410Z 36003KT 02/M04 A2993 RMK A01 T00221038  RH  065%=      5-min Rain = 0
KBR1 131411Z 31002KT 02/M04 A2993 RMK A01 T00241038  RH  064%=      5-min Rain = 0
KBR1 131412Z 31008KT 03/M04 A2993 RMK A01 T00271036  RH  063%=      5-min Rain = 0
KBR1 131413Z 29008KT 04/M03 A2993 RMK A01 T00411029  RH  060%=      5-min Rain = 0
KBR1 131414Z 29009KT 06/M03 A2993 RMK A01 T00591025  RH  055%=      5-min Rain = 0
KBR1 131415Z 28007KT 07/M03 A2993 RMK A01 T00691027  RH  050%=      5-min Rain = 0
KBR1 131416Z 29006KT 07/M03 A2993 RMK A01 T00721028  RH  049%=      5-min Rain = 0
KBR1 131417Z 30005KT 07/M03 A2993 RMK A01 T00711029  RH  049%=      5-min Rain = 0
KBR1 131418Z 30005KT 07/M03 A2994 RMK A01 T00691029  RH  050%=      5-min Rain = 0
KBR1 131419Z 30007KT 07/M03 A2994 RMK A01 T00681028  RH  050%=      5-min Rain = 0
KBR1 131420Z 28005KT 07/M03 A2994 RMK A01 T00681029  RH  050%=      5-min Rain = 0
KBR1 131421Z 28004KT 07/M03 A2994 RMK A01 T00701029  RH  049%=      5-min Rain = 0
KBR1 131422Z 25003KT 07/M03 A2994 RMK A01 T00711030  RH  049%=      5-min Rain = 0
KBR1 131423Z 23002KT 07/M03 A2994 RMK A01 T00711032  RH  048%=      5-min Rain = 0
KBR1 131424Z 25003KT 07/M03 A2994 RMK A01 T00721031  RH  048%=      5-min Rain = 0
KBR1 131425Z 26004KT 07/M03 A2994 RMK A01 T00721031  RH  048%=      5-min Rain = 0
KBR1 131426Z 26004KT 07/M03 A2994 RMK A01 T00721031  RH  048%=      5-min Rain = 0
KBR1 131427Z 28003KT 07/M03 A2994 RMK A01 T00731030  RH  048%=      5-min Rain = 0
KBR1 131428Z 28003KT 07/M03 A2994 RMK A01 T00731030  RH  048%=      5-min Rain = 0
KBR1 131429Z 23001KT 07/M03 A2993 RMK A01 T00731030  RH  048%=      5-min Rain = 0
KBR1 131430Z 20002KT 07/M03 A2993 RMK A01 T00721031  RH  048%=      5-min Rain = 0
KBR1 131431Z 25001KT 07/M03 A2994 RMK A01 T00731031  RH  048%=      5-min Rain = 0
KBR1 131432Z 25001KT 07/M03 A2994 RMK A01 T00731032  RH  047%=      5-min Rain = 0
KBR1 131433Z 21000KT 07/M03 A2994 RMK A01 T00731032  RH  047%=      5-min Rain = 0
KBR1 131434Z 16001KT 07/M03 A2994 RMK A01 T00721032  RH  048%=      5-min Rain = 0
KBR1 131435Z 13002KT 07/M03 A2994 RMK A01 T00681034  RH  048%=      5-min Rain = 0
KBR1 131436Z 16001KT 06/M04 A2994 RMK A01 T00611036  RH  050%=      5-min Rain = 0
KBR1 131437Z 18001KT 06/M03 A2994 RMK A01 T00621034  RH  050%=      5-min Rain = 0
KBR1 131438Z 18000KT 06/M03 A2994 RMK A01 T00631033  RH  050%=      5-min Rain = 0
KBR1 131439Z 27001KT 06/M03 A2994 RMK A01 T00641032  RH  050%=      5-min Rain = 0
KBR1 131440Z 27002KT 07/M03 A2994 RMK A01 T00651032  RH  050%=      5-min Rain = 0
KBR1 131441Z 30001KT 07/M03 A2994 RMK A01 T00681031  RH  049%=      5-min Rain = 0
KBR1 131442Z 32001KT 07/M03 A2994 RMK A01 T00701031  RH  049%=      5-min Rain = 0
KBR1 131443Z 32001KT 07/M03 A2994 RMK A01 T00711030  RH  048%=      5-min Rain = 0
KBR1 131444Z 35000KT 07/M03 A2994 RMK A01 T00721030  RH  048%=      5-min Rain = 0
KBR1 131445Z 02001KT 07/M03 A2994 RMK A01 T00731029  RH  048%=      5-min Rain = 0
KBR1 131446Z 00000KT 07/M03 A2994 RMK A01 T00731027  RH  049%=      5-min Rain = 0
KBR1 131447Z 35001KT 07/M03 A2994 RMK A01 T00731027  RH  049%=      5-min Rain = 0
KBR1 131448Z 00000KT 07/M03 A2994 RMK A01 T00731028  RH  048%=      5-min Rain = 0
KBR1 131449Z 06001KT 07/M03 A2994 RMK A01 T00741028  RH  048%=      5-min Rain = 0
KBR1 131450Z 07004KT 07/M03 A2994 RMK A01 T00651032  RH  050%=      5-min Rain = 0
KBR1 131451Z 07003KT 05/M04 A2994 RMK A01 T00461038  RH  055%=      5-min Rain = 0
KBR1 131452Z 05002KT 04/M04 A2994 RMK A01 T00361036  RH  059%=      5-min Rain = 0
KBR1 131453Z 05002KT 04/M03 A2994 RMK A01 T00351031  RH  062%=      5-min Rain = 0
KBR1 131454Z 07002KT 04/M03 A2994 RMK A01 T00351029  RH  063%=      5-min Rain = 0
KBR1 131455Z 06002KT 04/M03 A2993 RMK A01 T00381026  RH  063%=      5-min Rain = 0
KBR1 131456Z 01002KT 05/M02 A2993 RMK A01 T00451024  RH  061%=      5-min Rain = 0
KBR1 131457Z 01002KT 05/M02 A2994 RMK A01 T00521024  RH  058%=      5-min Rain = 0
KBR1 131458Z 35000KT 06/M02 A2994 RMK A01 T00581024  RH  055%=      5-min Rain = 0
KBR1 131459Z 36001KT 06/M02 A2994 RMK A01 T00621024  RH  054%=      5-min Rain = 0
KBR1 131500Z 31002KT 07/M02 A2994 RMK A01 T00661024  RH  053%=      5-min Rain = 0
KBR1 131501Z 35001KT 07/M02 A2994 RMK A01 T00681023  RH  052%=      5-min Rain = 0
KBR1 131502Z 28000KT 07/M02 A2994 RMK A01 T00701023  RH  052%=      5-min Rain = 0
KBR1 131503Z 31002G8KT 07/M02 A2994 RMK A01 T00711021  RH  052%=      5-min Rain = 0
KBR1 131504Z 29005KT 07/M02 A2994 RMK A01 T00721019  RH  052%=      5-min Rain = 0
KBR1 131505Z 28004KT 08/M02 A2994 RMK A01 T00761016  RH  052%=      5-min Rain = 0
KBR1 131506Z 29005KT 08/M01 A2994 RMK A01 T00781013  RH  052%=      5-min Rain = 0
KBR1 131507Z 29006KT 08/M01 A2994 RMK A01 T00821014  RH  051%=      5-min Rain = 0
KBR1 131508Z 29007KT 09/M01 A2993 RMK A01 T00871013  RH  050%=      5-min Rain = 0
KBR1 131509Z 29007KT 09/M01 A2993 RMK A01 T00911013  RH  048%=      5-min Rain = 0
KBR1 131510Z 28008KT 09/M01 A2993 RMK A01 T00931012  RH  048%=      5-min Rain = 0
KBR1 131511Z 29009KT 10/M01 A2993 RMK A01 T00961011  RH  047%=      5-min Rain = 0
KBR1 131512Z 29011KT 10/M01 A2993 RMK A01 T00981012  RH  046%=      5-min Rain = 0
KBR1 131513Z 29011KT 10/M01 A2994 RMK A01 T01001011  RH  046%=      5-min Rain = 0
KBR1 131514Z 29011KT 10/M01 A2994 RMK A01 T01021009  RH  046%=      5-min Rain = 0
KBR1 131515Z 29015KT 10/M01 A2994 RMK A01 T01041011  RH  045%=      5-min Rain = 0
KBR1 131516Z 29016KT 11/M01 A2994 RMK A01 T01061012  RH  044%=      5-min Rain = 0
KBR1 131517Z 29015KT 11/M01 A2994 RMK A01 T01071012  RH  043%=      5-min Rain = 0
KBR1 131518Z 29012G17KT 11/M01 A2994 RMK A01 T01081011  RH  043%=      5-min Rain = 0
KBR1 131519Z 29015KT 11/M01 A2994 RMK A01 T01091010  RH  043%=      5-min Rain = 0
KBR1 131520Z 29016KT 11/M01 A2994 RMK A01 T01101012  RH  043%=      5-min Rain = 0
KBR1 131521Z 29016KT 11/M01 A2994 RMK A01 T01111013  RH  042%=      5-min Rain = 0
KBR1 131522Z 29015KT 11/M01 A2993 RMK A01 T01121012  RH  042%=      5-min Rain = 0
KBR1 131523Z 29016G21KT 11/M01 A2993 RMK A01 T01121012  RH  042%=      5-min Rain = 0
KBR1 131524Z 29016KT 11/M01 A2993 RMK A01 T01121012  RH  042%=      5-min Rain = 0
KBR1 131525Z 28016KT 11/M01 A2993 RMK A01 T01131013  RH  042%=      5-min Rain = 0
KBR1 131526Z 29016G21KT 11/M01 A2993 RMK A01 T01131013  RH  041%=      5-min Rain = 0
KBR1 131527Z 29013KT 11/M01 A2993 RMK A01 T01131013  RH  041%=      5-min Rain = 0
KBR1 131528Z 29015KT 11/M01 A2993 RMK A01 T01141013  RH  042%=      5-min Rain = 0
KBR1 131529Z 29015KT 11/M01 A2993 RMK A01 T01141014  RH  041%=      5-min Rain = 0
KBR1 131530Z 29015KT 12/M01 A2993 RMK A01 T01151014  RH  041%=      5-min Rain = 0
KBR1 131531Z 29015KT 12/M01 A2993 RMK A01 T01161014  RH  041%=      5-min Rain = 0
KBR1 131532Z 29015G20KT 12/M01 A2993 RMK A01 T01171014  RH  040%=      5-min Rain = 0
KBR1 131533Z 29016KT 12/M01 A2994 RMK A01 T01171013  RH  040%=      5-min Rain = 0
KBR1 131534Z 29020KT 12/M01 A2994 RMK A01 T01181014  RH  040%=      5-min Rain = 0
KBR1 131535Z 30017KT 12/M02 A2994 RMK A01 T01181015  RH  039%=      5-min Rain = 0
KBR1 131536Z 29014KT 12/M01 A2994 RMK A01 T01191013  RH  040%=      5-min Rain = 0
KBR1 131537Z 29018KT 12/M01 A2994 RMK A01 T01191014  RH  040%=      5-min Rain = 0
KBR1 131538Z 30016KT 12/M02 A2994 RMK A01 T01191015  RH  039%=      5-min Rain = 0
KBR1 131539Z 29016G21KT 12/M01 A2994 RMK A01 T01191014  RH  039%=      5-min Rain = 0
KBR1 131540Z 29014G19KT 12/M01 A2994 RMK A01 T01201014  RH  039%=      5-min Rain = 0
KBR1 131541Z 29018KT 12/M01 A2994 RMK A01 T01201014  RH  039%=      5-min Rain = 0
KBR1 131542Z 29017KT 12/M01 A2994 RMK A01 T01211014  RH  039%=      5-min Rain = 0
KBR1 131543Z 29016KT 12/M01 A2994 RMK A01 T01211014  RH  039%=      5-min Rain = 0
KBR1 131544Z 28015KT 12/M01 A2994 RMK A01 T01211014  RH  039%=      5-min Rain = 0
KBR1 131545Z 29015KT 12/M02 A2994 RMK A01 T01221015  RH  039%=      5-min Rain = 0
KBR1 131546Z 29015KT 12/M01 A2993 RMK A01 T01231014  RH  039%=      5-min Rain = 0
KBR1 131547Z 29014KT 12/M02 A2993 RMK A01 T01231015  RH  038%=      5-min Rain = 0
KBR1 131548Z 29017KT 12/M01 A2993 RMK A01 T01241014  RH  038%=      5-min Rain = 0
KBR1 131549Z 29014KT 12/M02 A2993 RMK A01 T01241015  RH  038%=      5-min Rain = 0
KBR1 131550Z 29015KT 13/M01 A2994 RMK A01 T01251013  RH  038%=      5-min Rain = 0
KBR1 131551Z 29016KT 13/M01 A2994 RMK A01 T01261014  RH  038%=      5-min Rain = 0
KBR1 131552Z 29019KT 13/M01 A2994 RMK A01 T01261014  RH  038%=      5-min Rain = 0
KBR1 131553Z 29018KT 13/M02 A2994 RMK A01 T01271015  RH  037%=      5-min Rain = 0
KBR1 131554Z 29016KT 13/M02 A2994 RMK A01 T01271015  RH  037%=      5-min Rain = 0
KBR1 131555Z 29016KT 13/M02 A2994 RMK A01 T01271015  RH  038%=      5-min Rain = 0
KBR1 131556Z 29015KT 13/M01 A2994 RMK A01 T01281013  RH  038%=      5-min Rain = 0
KBR1 131557Z 29014KT 13/M01 A2993 RMK A01 T01291013  RH  037%=      5-min Rain = 0
KBR1 131558Z 29017KT 13/M01 A2993 RMK A01 T01301013  RH  037%=      5-min Rain = 0
KBR1 131559Z 29017KT 13/M02 A2993 RMK A01 T01301015  RH  037%=      5-min Rain = 0
KBR1 131600Z 29015KT 13/M01 A2993 RMK A01 T01301014  RH  037%=      5-min Rain = 0
KBR1 131601Z 29016KT 13/M01 A2993 RMK A01 T01301014  RH  037%=      5-min Rain = 0
KBR1 131602Z 29017KT 13/M01 A2993 RMK A01 T01301014  RH  037%=      5-min Rain = 0
KBR1 131603Z 29017G22KT 13/M02 A2993 RMK A01 T01301015  RH  037%=      5-min Rain = 0
KBR1 131604Z 29016KT 13/M02 A2993 RMK A01 T01301015  RH  037%=      5-min Rain = 0
KBR1 131605Z 30018KT 13/M01 A2993 RMK A01 T01311014  RH  037%=      5-min Rain = 0
KBR1 131606Z 30017KT 13/M02 A2993 RMK A01 T01321015  RH  036%=      5-min Rain = 0
KBR1 131607Z 29017KT 13/M01 A2993 RMK A01 T01331014  RH  036%=      5-min Rain = 0
KBR1 131608Z 29017KT 13/M01 A2993 RMK A01 T01331014  RH  036%=      5-min Rain = 0
KBR1 131609Z 30015KT 13/M01 A2993 RMK A01 T01331014  RH  036%=      5-min Rain = 0
KBR1 131610Z 29017KT 13/M02 A2994 RMK A01 T01331015  RH  036%=      5-min Rain = 0
KBR1 131611Z 29019KT 13/M02 A2994 RMK A01 T01331016  RH  036%=      5-min Rain = 0
KBR1 131612Z 30018KT 13/M02 A2994 RMK A01 T01331016  RH  036%=      5-min Rain = 0
KBR1 131613Z 30016KT 13/M01 A2994 RMK A01 T01341014  RH  036%=      5-min Rain = 0
KBR1 131614Z 29017KT 14/M02 A2994 RMK A01 T01351015  RH  035%=      5-min Rain = 0
KBR1 131615Z 29020KT 14/M02 A2994 RMK A01 T01361015  RH  035%=      5-min Rain = 0
KBR1 131616Z 30018KT 14/M02 A2994 RMK A01 T01371015  RH  035%=      5-min Rain = 0
KBR1 131617Z 30017KT 14/M02 A2994 RMK A01 T01371015  RH  035%=      5-min Rain = 0
KBR1 131618Z 30015KT 14/M01 A2994 RMK A01 T01371014  RH  035%=      5-min Rain = 0
KBR1 131619Z 30017KT 14/M02 A2994 RMK A01 T01381015  RH  035%=      5-min Rain = 0
KBR1 131620Z 30015G21KT 14/M02 A2994 RMK A01 T01381015  RH  035%=      5-min Rain = 0
KBR1 131621Z 30016KT 14/M01 A2994 RMK A01 T01391013  RH  035%=      5-min Rain = 0
KBR1 131622Z 30018KT 14/M02 A2994 RMK A01 T01401015  RH  034%=      5-min Rain = 0
KBR1 131623Z 30018KT 14/M02 A2994 RMK A01 T01401016  RH  034%=      5-min Rain = 0
KBR1 131624Z 30015KT 14/M02 A2994 RMK A01 T01401015  RH  034%=      5-min Rain = 0
KBR1 131625Z 29015KT 14/M01 A2994 RMK A01 T01411014  RH  034%=      5-min Rain = 0
KBR1 131626Z 30018KT 14/M01 A2994 RMK A01 T01421014  RH  034%=      5-min Rain = 0
KBR1 131627Z 29017G22KT 14/M02 A2994 RMK A01 T01421015  RH  034%=      5-min Rain = 0
KBR1 131628Z 30017KT 14/M02 A2994 RMK A01 T01411015  RH  034%=      5-min Rain = 0
KBR1 131629Z 30018KT 14/M02 A2994 RMK A01 T01411015  RH  034%=      5-min Rain = 0
KBR1 131630Z 29017KT 14/M02 A2994 RMK A01 T01401015  RH  034%=      5-min Rain = 0
KBR1 131631Z 30017KT 14/M02 A2994 RMK A01 T01411015  RH  034%=      5-min Rain = 0
KBR1 131632Z 30015KT 14/M01 A2994 RMK A01 T01421014  RH  034%=      5-min Rain = 0
KBR1 131633Z 30013KT 14/M01 A2994 RMK A01 T01441013  RH  034%=      5-min Rain = 0
KBR1 131634Z 30014KT 15/M01 A2994 RMK A01 T01461013  RH  034%=      5-min Rain = 0
KBR1 131635Z 30015KT 15/M01 A2993 RMK A01 T01471013  RH  033%=      5-min Rain = 0
KBR1 131636Z 30017KT 15/M01 A2993 RMK A01 T01481014  RH  033%=      5-min Rain = 0
KBR1 131637Z 30018KT 15/M02 A2994 RMK A01 T01481015  RH  033%=      5-min Rain = 0
KBR1 131638Z 29019G24KT 15/M02 A2994 RMK A01 T01481015  RH  033%=      5-min Rain = 0
KBR1 131639Z 30017KT 15/M02 A2994 RMK A01 T01481015  RH  032%=      5-min Rain = 0
KBR1 131640Z 30019KT 15/M01 A2994 RMK A01 T01491014  RH  033%=      5-min Rain = 0
KBR1 131641Z 30019KT 15/M02 A2994 RMK A01 T01501015  RH  032%=      5-min Rain = 0
KBR1 131642Z 30018KT 15/M02 A2994 RMK A01 T01501015  RH  032%=      5-min Rain = 0
KBR1 131643Z 30019KT 15/M02 A2994 RMK A01 T01501016  RH  032%=      5-min Rain = 0
KBR1 131644Z 30018KT 15/M02 A2994 RMK A01 T01501016  RH  032%=      5-min Rain = 0
KBR1 131645Z 29020KT 15/M01 A2994 RMK A01 T01511014  RH  032%=      5-min Rain = 0
KBR1 131646Z 29018KT 15/M02 A2994 RMK A01 T01521016  RH  032%=      5-min Rain = 0
KBR1 131647Z 30017KT 15/M02 A2994 RMK A01 T01521015  RH  032%=      5-min Rain = 0
KBR1 131648Z 30016G21KT 15/M01 A2993 RMK A01 T01541014  RH  032%=      5-min Rain = 0
KBR1 131649Z 29019KT 16/M02 A2993 RMK A01 T01551015  RH  031%=      5-min Rain = 0
KBR1 131650Z 29016KT 15/M02 A2993 RMK A01 T01541016  RH  031%=      5-min Rain = 0
KBR1 131651Z 29016KT 16/M01 A2993 RMK A01 T01551014  RH  031%=      5-min Rain = 0
KBR1 131652Z 29018KT 16/M02 A2993 RMK A01 T01561016  RH  031%=      5-min Rain = 0
KBR1 131653Z 30015G20KT 16/M01 A2993 RMK A01 T01571014  RH  031%=      5-min Rain = 0
KBR1 131654Z 29018KT 16/M01 A2993 RMK A01 T01591014  RH  031%=      5-min Rain = 0
KBR1 131655Z 30021G26KT 16/M02 A2993 RMK A01 T01591017  RH  030%=      5-min Rain = 0
KBR1 131656Z 29020KT 16/M02 A2993 RMK A01 T01591017  RH  030%=      5-min Rain = 0
KBR1 131657Z 29021KT 16/M02 A2993 RMK A01 T01601017  RH  030%=      5-min Rain = 0
KBR1 131658Z 29023KT 16/M02 A2993 RMK A01 T01601018  RH  029%=      5-min Rain = 0
KBR1 131659Z 29023KT 16/M02 A2993 RMK A01 T01601019  RH  029%=      5-min Rain = 0
KBR1 131700Z 29020KT 16/M02 A2993 RMK A01 T01601020  RH  029%=      5-min Rain = 0
KBR1 131701Z 29021G28KT 16/M02 A2993 RMK A01 T01601019  RH  029%=      5-min Rain = 0
KBR1 131702Z 29022KT 16/M02 A2993 RMK A01 T01601020  RH  029%=      5-min Rain = 0
KBR1 131703Z 29021KT 16/M02 A2993 RMK A01 T01601020  RH  029%=      5-min Rain = 0
KBR1 131704Z 29021KT 16/M02 A2994 RMK A01 T01611019  RH  029%=      5-min Rain = 0
KBR1 131705Z 29023G28KT 16/M02 A2994 RMK A01 T01621019  RH  029%=      5-min Rain = 0
KBR1 131706Z 30020KT 16/M02 A2993 RMK A01 T01611020  RH  029%=      5-min Rain = 0
KBR1 131707Z 29018KT 16/M02 A2993 RMK A01 T01621019  RH  029%=      5-min Rain = 0
KBR1 131708Z 29020KT 16/M02 A2993 RMK A01 T01641017  RH  029%=      5-min Rain = 0
KBR1 131709Z 29022G27KT 17/M02 A2993 RMK A01 T01651019  RH  028%=      5-min Rain = 0
KBR1 131710Z 29022KT 17/M02 A2993 RMK A01 T01651020  RH  028%=      5-min Rain = 0
KBR1 131711Z 29022G27KT 16/M02 A2993 RMK A01 T01641022  RH  028%=      5-min Rain = 0
KBR1 131712Z 30021G26KT 16/M02 A2993 RMK A01 T01631021  RH  028%=      5-min Rain = 0
KBR1 131713Z 29023KT 16/M02 A2993 RMK A01 T01641021  RH  028%=      5-min Rain = 0
KBR1 131714Z 29022KT 16/M02 A2993 RMK A01 T01641022  RH  028%=      5-min Rain = 0
KBR1 131715Z 29023KT 16/M02 A2993 RMK A01 T01641022  RH  028%=      5-min Rain = 0
KBR1 131716Z 29023KT 16/M02 A2992 RMK A01 T01641023  RH  028%=      5-min Rain = 0
KBR1 131717Z 30020G25KT 16/M02 A2992 RMK A01 T01641023  RH  028%=      5-min Rain = 0
KBR1 131718Z 30018G23KT 17/M02 A2992 RMK A01 T01651020  RH  028%=      5-min Rain = 0
KBR1 131719Z 29018KT 17/M02 A2992 RMK A01 T01681020  RH  028%=      5-min Rain = 0
KBR1 131720Z 29019KT 17/M02 A2992 RMK A01 T01691021  RH  027%=      5-min Rain = 0
KBR1 131721Z 29022KT 17/M02 A2992 RMK A01 T01691021  RH  027%=      5-min Rain = 0
KBR1 131722Z 30021KT 17/M02 A2993 RMK A01 T01691022  RH  027%=      5-min Rain = 0
KBR1 131723Z 29017G22KT 17/M02 A2993 RMK A01 T01681021  RH  027%=      5-min Rain = 0
KBR1 131724Z 29021G26KT 17/M02 A2993 RMK A01 T01691020  RH  027%=      5-min Rain = 0
KBR1 131725Z 29018KT 17/M02 A2993 RMK A01 T01701021  RH  027%=      5-min Rain = 0
KBR1 131726Z 29022G27KT 17/M02 A2993 RMK A01 T01711021  RH  027%=      5-min Rain = 0
KBR1 131727Z 29021KT 17/M02 A2992 RMK A01 T01701023  RH  027%=      5-min Rain = 0
KBR1 131728Z 29022KT 17/M02 A2992 RMK A01 T01701023  RH  027%=      5-min Rain = 0
KBR1 131729Z 29021KT 17/M02 A2992 RMK A01 T01691023  RH  027%=      5-min Rain = 0
KBR1 131730Z 30019KT 17/M02 A2992 RMK A01 T01691023  RH  027%=      5-min Rain = 0
KBR1 131731Z 30018G23KT 17/M02 A2992 RMK A01 T01701021  RH  027%=      5-min Rain = 0
KBR1 131732Z 30020G25KT 17/M02 A2992 RMK A01 T01711021  RH  027%=      5-min Rain = 0
KBR1 131733Z 29021KT 17/M02 A2993 RMK A01 T01711022  RH  027%=      5-min Rain = 0
KBR1 131734Z 29018G23KT 17/M02 A2992 RMK A01 T01701022  RH  027%=      5-min Rain = 0
KBR1 131735Z 29022KT 17/M02 A2992 RMK A01 T01701023  RH  027%=      5-min Rain = 0
KBR1 131736Z 29020KT 17/M02 A2992 RMK A01 T01691023  RH  027%=      5-min Rain = 0
KBR1 131737Z 29021KT 17/M02 A2992 RMK A01 T01691023  RH  027%=      5-min Rain = 0
KBR1 131738Z 29018KT 17/M02 A2992 RMK A01 T01701022  RH  027%=      5-min Rain = 0
KBR1 131739Z 29021KT 17/M02 A2992 RMK A01 T01721022  RH  027%=      5-min Rain = 0
KBR1 131740Z 29022KT 17/M02 A2992 RMK A01 T01711024  RH  026%=      5-min Rain = 0
KBR1 131741Z 30020KT 17/M02 A2992 RMK A01 T01711024  RH  026%=      5-min Rain = 0
KBR1 131742Z 29018KT 17/M02 A2991 RMK A01 T01711023  RH  026%=      5-min Rain = 0
KBR1 131743Z 29018KT 17/M02 A2991 RMK A01 T01721023  RH  026%=      5-min Rain = 0
KBR1 131744Z 29017KT 17/M02 A2991 RMK A01 T01721023  RH  026%=      5-min Rain = 0
KBR1 131745Z 29018G23KT 17/M02 A2991 RMK A01 T01721022  RH  026%=      5-min Rain = 0
KBR1 131746Z 29018KT 17/M02 A2991 RMK A01 T01721023  RH  026%=      5-min Rain = 0
KBR1 131747Z 29018G23KT 17/M02 A2991 RMK A01 T01721023  RH  026%=      5-min Rain = 0
KBR1 131748Z 29020KT 17/M02 A2991 RMK A01 T01721023  RH  026%=      5-min Rain = 0
KBR1 131749Z 30020KT 17/M02 A2991 RMK A01 T01731023  RH  026%=      5-min Rain = 0
KBR1 131750Z 29019KT 17/M02 A2992 RMK A01 T01721024  RH  026%=      5-min Rain = 0
KBR1 131751Z 30018KT 17/M02 A2992 RMK A01 T01731023  RH  026%=      5-min Rain = 0
KBR1 131752Z 30021KT 17/M02 A2991 RMK A01 T01741024  RH  026%=      5-min Rain = 0
KBR1 131753Z 31020KT 17/M03 A2991 RMK A01 T01731025  RH  026%=      5-min Rain = 0
KBR1 131754Z 30019KT 17/M03 A2991 RMK A01 T01731027  RH  025%=      5-min Rain = 0
KBR1 131755Z 31018G23KT 17/M03 A2991 RMK A01 T01721026  RH  026%=      5-min Rain = 0
KBR1 131756Z 30017G22KT 17/M02 A2991 RMK A01 T01741024  RH  026%=      5-min Rain = 0
KBR1 131757Z 29020KT 18/M02 A2991 RMK A01 T01761023  RH  026%=      5-min Rain = 0
KBR1 131758Z 29018KT 17/M02 A2991 RMK A01 T01741024  RH  026%=      5-min Rain = 0
KBR1 131759Z 29017KT 18/M03 A2991 RMK A01 T01751026  RH  025%=      5-min Rain = 0
KBR1 131800Z 30015KT 18/M03 A2991 RMK A01 T01751026  RH  025%=      5-min Rain = 0
KBR1 131801Z 30017KT 18/M02 A2991 RMK A01 T01771023  RH  025%=      5-min Rain = 0
KBR1 131802Z 30017KT 18/M02 A2992 RMK A01 T01791024  RH  025%=      5-min Rain = 0
KBR1 131803Z 29017KT 18/M03 A2991 RMK A01 T01791025  RH  025%=      5-min Rain = 0
KBR1 131804Z 30018KT 18/M03 A2991 RMK A01 T01781025  RH  025%=      5-min Rain = 0
KBR1 131805Z 30018KT 18/M03 A2991 RMK A01 T01781028  RH  024%=      5-min Rain = 0
KBR1 131806Z 30016KT 18/M03 A2991 RMK A01 T01771028  RH  025%=      5-min Rain = 0
KBR1 131807Z 30016KT 18/M03 A2991 RMK A01 T01771027  RH  025%=      5-min Rain = 0
KBR1 131808Z 31016KT 18/M03 A2991 RMK A01 T01781028  RH  024%=      5-min Rain = 0
KBR1 131809Z 30017KT 18/M03 A2991 RMK A01 T01791026  RH  025%=      5-min Rain = 0
KBR1 131810Z 30016KT 18/M03 A2991 RMK A01 T01801027  RH  024%=      5-min Rain = 0
KBR1 131811Z 30018KT 18/M03 A2991 RMK A01 T01801027  RH  024%=      5-min Rain = 0
KBR1 131812Z 29018KT 18/M03 A2991 RMK A01 T01801026  RH  024%=      5-min Rain = 0
KBR1 131813Z 28018KT 18/M03 A2992 RMK A01 T01811027  RH  024%=      5-min Rain = 0
KBR1 131814Z 29019KT 18/M03 A2991 RMK A01 T01791029  RH  024%=      5-min Rain = 0
KBR1 131815Z 29017KT 18/M03 A2991 RMK A01 T01781031  RH  024%=      5-min Rain = 0
KBR1 131816Z 29014KT 18/M03 A2991 RMK A01 T01791032  RH  024%=      5-min Rain = 0
KBR1 131817Z 30019KT 18/M03 A2991 RMK A01 T01811034  RH  023%=      5-min Rain = 0
KBR1 131818Z 30022KT 18/M05 A2991 RMK A01 T01821046  RH  021%=      5-min Rain = 0
KBR1 131819Z 30021KT 18/M05 A2991 RMK A01 T01811047  RH  021%=      5-min Rain = 0
KBR1 131820Z 31022KT 18/M05 A2991 RMK A01 T01801046  RH  021%=      5-min Rain = 0
KBR1 131821Z 30023KT 18/M05 A2991 RMK A01 T01791045  RH  021%=      5-min Rain = 0
KBR1 131822Z 30022KT 18/M04 A2991 RMK A01 T01781044  RH  022%=      5-min Rain = 0
KBR1 131823Z 30018KT 18/M04 A2991 RMK A01 T01781041  RH  022%=      5-min Rain = 0
KBR1 131824Z 31017KT 18/M04 A2991 RMK A01 T01791040  RH  022%=      5-min Rain = 0
KBR1 131825Z 31017KT 18/M04 A2991 RMK A01 T01781040  RH  022%=      5-min Rain = 0
KBR1 131826Z 29018KT 18/M04 A2991 RMK A01 T01791035  RH  023%=      5-min Rain = 0
KBR1 131827Z 29017KT 18/M03 A2991 RMK A01 T01791034  RH  023%=      5-min Rain = 0
KBR1 131828Z 31015KT 18/M03 A2991 RMK A01 T01791034  RH  023%=      5-min Rain = 0
KBR1 131829Z 30015KT 18/M04 A2991 RMK A01 T01811036  RH  023%=      5-min Rain = 0
KBR1 131830Z 31011KT 18/M04 A2991 RMK A01 T01791038  RH  023%=      5-min Rain = 0
KBR1 131831Z 31013KT 18/M03 A2991 RMK A01 T01811034  RH  023%=      5-min Rain = 0
KBR1 131832Z 29015KT 18/M03 A2991 RMK A01 T01831033  RH  023%=      5-min Rain = 0
KBR1 131833Z 28015KT 18/M03 A299 RMK A01 T01841034  RH  022%=      5-min Rain = 0
KBR1 131834Z 29014KT 18/M03 A299 RMK A01 T01831034  RH  023%=      5-min Rain = 0
KBR1 131835Z 29015KT 18/M03 A2991 RMK A01 T01841032  RH  023%=      5-min Rain = 0
KBR1 131836Z 30019KT 18/M03 A2991 RMK A01 T01841034  RH  022%=      5-min Rain = 0
KBR1 131837Z 29014KT 18/M04 A2991 RMK A01 T01811036  RH  023%=      5-min Rain = 0
KBR1 131838Z 28015KT 18/M04 A2991 RMK A01 T01801036  RH  023%=      5-min Rain = 0
KBR1 131839Z 28015KT 18/M03 A2991 RMK A01 T01831031  RH  023%=      5-min Rain = 0
KBR1 131840Z 28018KT 19/M03 A2991 RMK A01 T01861034  RH  022%=      5-min Rain = 0
KBR1 131841Z 29019KT 19/M04 A2991 RMK A01 T01851038  RH  022%=      5-min Rain = 0
KBR1 131842Z 29018KT 19/M04 A299 RMK A01 T01851041  RH  021%=      5-min Rain = 0
KBR1 131843Z 30019KT 18/M04 A299 RMK A01 T01831042  RH  021%=      5-min Rain = 0
KBR1 131844Z 30018KT 18/M04 A299 RMK A01 T01831039  RH  022%=      5-min Rain = 0
KBR1 131845Z 30015G21KT 18/M04 A299 RMK A01 T01841041  RH  021%=      5-min Rain = 0
KBR1 131846Z 30018G23KT 18/M04 A299 RMK A01 T01841040  RH  022%=      5-min Rain = 0
KBR1 131847Z 30019KT 19/M04 A299 RMK A01 T01851042  RH  021%=      5-min Rain = 0
KBR1 131848Z 31018KT 18/M05 A2989 RMK A01 T01831047  RH  021%=      5-min Rain = 0
KBR1 131849Z 29016KT 18/M05 A2989 RMK A01 T01831046  RH  021%=      5-min Rain = 0
KBR1 131850Z 29019KT 18/M04 A2989 RMK A01 T01831044  RH  021%=      5-min Rain = 0
KBR1 131851Z 31017KT 18/M04 A2989 RMK A01 T01841042  RH  021%=      5-min Rain = 0
KBR1 131852Z 31016KT 19/M05 A2989 RMK A01 T01851047  RH  020%=      5-min Rain = 0
KBR1 131853Z 31019G24KT 19/M05 A2989 RMK A01 T01861049  RH  020%=      5-min Rain = 0
KBR1 131854Z 31021KT 19/M05 A2989 RMK A01 T01871051  RH  019%=      5-min Rain = 0
KBR1 131855Z 32020KT 19/M05 A2989 RMK A01 T01861053  RH  019%=      5-min Rain = 0
KBR1 131856Z 30016KT 18/M05 A2989 RMK A01 T01841051  RH  020%=      5-min Rain = 0
KBR1 131857Z 31015KT 19/M05 A2989 RMK A01 T01851051  RH  020%=      5-min Rain = 0
KBR1 131858Z 31016G25KT 19/M05 A2989 RMK A01 T01851047  RH  020%=      5-min Rain = 0
KBR1 131859Z 30023KT 19/M05 A2989 RMK A01 T01861046  RH  020%=      5-min Rain = 0
KBR1 131900Z 30020G26KT 19/M05 A2989 RMK A01 T01851050  RH  020%=      5-min Rain = 0
KBR1 131901Z 29020G25KT 18/M05 A2989 RMK A01 T01841048  RH  020%=      5-min Rain = 0
KBR1 131902Z 29023KT 19/M05 A2989 RMK A01 T01851047  RH  020%=      5-min Rain = 0
KBR1 131903Z 30020KT 18/M05 A2989 RMK A01 T01841047  RH  020%=      5-min Rain = 0
KBR1 131904Z 32017KT 18/M05 A2989 RMK A01 T01841048  RH  020%=      5-min Rain = 0
KBR1 131905Z 31021G27KT 18/M05 A2989 RMK A01 T01841048  RH  020%=      5-min Rain = 0
KBR1 131906Z 30021KT 18/M05 A2989 RMK A01 T01841049  RH  020%=      5-min Rain = 0
KBR1 131907Z 30019KT 19/M05 A2989 RMK A01 T01861050  RH  020%=      5-min Rain = 0
KBR1 131908Z 30014KT 18/M05 A2988 RMK A01 T01841049  RH  020%=      5-min Rain = 0
KBR1 131909Z 30017G23KT 19/M05 A2988 RMK A01 T01851046  RH  020%=      5-min Rain = 0
KBR1 131910Z 29021KT 19/M05 A2989 RMK A01 T01871047  RH  020%=      5-min Rain = 0
KBR1 131911Z 29020G25KT 19/M05 A2988 RMK A01 T01871048  RH  020%=      5-min Rain = 0
KBR1 131912Z 30020KT 19/M05 A2988 RMK A01 T01851051  RH  020%=      5-min Rain = 0
KBR1 131913Z 29019KT 19/M05 A2988 RMK A01 T01851051  RH  020%=      5-min Rain = 0
KBR1 131914Z 29016KT 19/M05 A2988 RMK A01 T01851050  RH  020%=      5-min Rain = 0
KBR1 131915Z 29020G25KT 19/M05 A2988 RMK A01 T01861048  RH  020%=      5-min Rain = 0
KBR1 131916Z 30024KT 19/M05 A2988 RMK A01 T01871051  RH  019%=      5-min Rain = 0
KBR1 131917Z 29019G24KT 19/M06 A2988 RMK A01 T01861055  RH  019%=      5-min Rain = 0
KBR1 131918Z 29018KT 19/M05 A2988 RMK A01 T01851053  RH  019%=      5-min Rain = 0
KBR1 131919Z 30020KT 19/M06 A2988 RMK A01 T01851056  RH  019%=      5-min Rain = 0
KBR1 131920Z 30020KT 19/M06 A2988 RMK A01 T01851056  RH  019%=      5-min Rain = 0
KBR1 131921Z 30020KT 18/M06 A2987 RMK A01 T01831058  RH  019%=      5-min Rain = 0
KBR1 131922Z 30020KT 18/M06 A2987 RMK A01 T01831055  RH  019%=      5-min Rain = 0
KBR1 131923Z 30020KT 18/M05 A2987 RMK A01 T01831054  RH  019%=      5-min Rain = 0
KBR1 131924Z 32019KT 18/M06 A2987 RMK A01 T01841055  RH  019%=      5-min Rain = 0
KBR1 131925Z 32020KT 19/M06 A2987 RMK A01 T01851056  RH  019%=      5-min Rain = 0
KBR1 131926Z 31018G25KT 18/M05 A2987 RMK A01 T01841054  RH  019%=      5-min Rain = 0
KBR1 131927Z 31019KT 19/M05 A2987 RMK A01 T01851054  RH  019%=      5-min Rain = 0
KBR1 131928Z 32020KT 19/M06 A2987 RMK A01 T01851055  RH  019%=      5-min Rain = 0
KBR1 131929Z 32018KT 18/M06 A2987 RMK A01 T01841055  RH  019%=      5-min Rain = 0
KBR1 131930Z 31019KT 19/M06 A2987 RMK A01 T01851056  RH  019%=      5-min Rain = 0
KBR1 131931Z 31018KT 19/M06 A2987 RMK A01 T01861057  RH  019%=      5-min Rain = 0
KBR1 131932Z 30017KT 19/M05 A2987 RMK A01 T01861053  RH  019%=      5-min Rain = 0
KBR1 131933Z 29017KT 19/M05 A2987 RMK A01 T01881049  RH  020%=      5-min Rain = 0
KBR1 131934Z 30020KT 19/M05 A2987 RMK A01 T01891051  RH  019%=      5-min Rain = 0
KBR1 131935Z 31021KT 19/M05 A2987 RMK A01 T01891051  RH  019%=      5-min Rain = 0
KBR1 131936Z 31023KT 19/M05 A2987 RMK A01 T01881053  RH  019%=      5-min Rain = 0
KBR1 131937Z 31019G24KT 19/M06 A2987 RMK A01 T01851058  RH  019%=      5-min Rain = 0
KBR1 131938Z 30020KT 19/M06 A2987 RMK A01 T01851058  RH  019%=      5-min Rain = 0
KBR1 131939Z 30020KT 19/M06 A2987 RMK A01 T01861060  RH  018%=      5-min Rain = 0
KBR1 131940Z 30018KT 19/M06 A2987 RMK A01 T01861059  RH  018%=      5-min Rain = 0
KBR1 131941Z 30018KT 19/M06 A2987 RMK A01 T01871055  RH  019%=      5-min Rain = 0
KBR1 131942Z 30023G28KT 19/M05 A2987 RMK A01 T01901052  RH  019%=      5-min Rain = 0
KBR1 131943Z 30023KT 19/M06 A2987 RMK A01 T01881056  RH  019%=      5-min Rain = 0
KBR1 131944Z 29023KT 19/M06 A2987 RMK A01 T01861056  RH  019%=      5-min Rain = 0
KBR1 131945Z 30023KT 19/M06 A2987 RMK A01 T01851057  RH  019%=      5-min Rain = 0
KBR1 131946Z 30021KT 19/M06 A2987 RMK A01 T01851056  RH  019%=      5-min Rain = 0
KBR1 131947Z 30023KT 19/M06 A2987 RMK A01 T01851056  RH  019%=      5-min Rain = 0
KBR1 131948Z 30022KT 19/M06 A2987 RMK A01 T01861058  RH  019%=      5-min Rain = 0
KBR1 131949Z 30024G29KT 19/M06 A2987 RMK A01 T01861062  RH  018%=      5-min Rain = 0
KBR1 131950Z 31023G28KT 19/M06 A2987 RMK A01 T01851063  RH  018%=      5-min Rain = 0
KBR1 131951Z 31021KT 19/M06 A2987 RMK A01 T01861064  RH  018%=      5-min Rain = 0
KBR1 131952Z 30018G23KT 19/M06 A2987 RMK A01 T01871064  RH  018%=      5-min Rain = 0
KBR1 131953Z 31020KT 19/M06 A2987 RMK A01 T01891059  RH  018%=      5-min Rain = 0
KBR1 131954Z 31020KT 19/M07 A2987 RMK A01 T01901065  RH  017%=      5-min Rain = 0
KBR1 131955Z 31022KT 19/M07 A2987 RMK A01 T01891065  RH  017%=      5-min Rain = 0
KBR1 131956Z 31021KT 19/M06 A2987 RMK A01 T01861063  RH  018%=      5-min Rain = 0
KBR1 131957Z 31023KT 19/M06 A2987 RMK A01 T01861063  RH  018%=      5-min Rain = 0
KBR1 131958Z 30021KT 19/M06 A2987 RMK A01 T01851062  RH  018%=      5-min Rain = 0
KBR1 131959Z 31018KT 19/M06 A2986 RMK A01 T01851058  RH  019%=      5-min Rain = 0
KBR1 132000Z 30021KT 19/M05 A2986 RMK A01 T01861053  RH  019%=      5-min Rain = 0
KBR1 132001Z 30020KT 19/M05 A2986 RMK A01 T01861052  RH  019%=      5-min Rain = 0
KBR1 132002Z 30019KT 19/M05 A2986 RMK A01 T01861052  RH  019%=      5-min Rain = 0
KBR1 132003Z 30022G28KT 19/M05 A2986 RMK A01 T01861053  RH  019%=      5-min Rain = 0
KBR1 132004Z 32018G25KT 19/M05 A2986 RMK A01 T01861052  RH  019%=      5-min Rain = 0
KBR1 132005Z 31017KT 19/M05 A2986 RMK A01 T01871054  RH  019%=      5-min Rain = 0
KBR1 132006Z 30018KT 19/M05 A2987 RMK A01 T01881054  RH  019%=      5-min Rain = 0
KBR1 132007Z 31017KT 19/M05 A2987 RMK A01 T01881052  RH  019%=      5-min Rain = 0
KBR1 132008Z 31019KT 19/M05 A2987 RMK A01 T01871052  RH  019%=      5-min Rain = 0
KBR1 132009Z 30019KT 19/M05 A2987 RMK A01 T01861052  RH  019%=      5-min Rain = 0
KBR1 132010Z 30022KT 19/M05 A2987 RMK A01 T01861054  RH  019%=      5-min Rain = 0
KBR1 132011Z 30020KT 19/M05 A2987 RMK A01 T01851054  RH  019%=      5-min Rain = 0
KBR1 132012Z 30019KT 19/M05 A2987 RMK A01 T01851052  RH  019%=      5-min Rain = 0
KBR1 132013Z 30015KT 19/M05 A2986 RMK A01 T01851052  RH  020%=      5-min Rain = 0
KBR1 132014Z 30014KT 19/M05 A2986 RMK A01 T01861049  RH  020%=      5-min Rain = 0
KBR1 132015Z 30015G23KT 19/M05 A2986 RMK A01 T01871049  RH  020%=      5-min Rain = 0
KBR1 132016Z 30020G25KT 19/M05 A2986 RMK A01 T01881052  RH  019%=      5-min Rain = 0
KBR1 132017Z 31022KT 19/M06 A2986 RMK A01 T01871058  RH  018%=      5-min Rain = 0
KBR1 132018Z 31022KT 19/M06 A2986 RMK A01 T01861059  RH  018%=      5-min Rain = 0
KBR1 132019Z 30020KT 19/M06 A2986 RMK A01 T01851057  RH  019%=      5-min Rain = 0
KBR1 132020Z 31024KT 19/M06 A2986 RMK A01 T01861058  RH  019%=      5-min Rain = 0
KBR1 132021Z 32025KT 19/M06 A2986 RMK A01 T01851063  RH  018%=      5-min Rain = 0
KBR1 132022Z 31022KT 18/M06 A2986 RMK A01 T01841064  RH  018%=      5-min Rain = 0
KBR1 132023Z 30020KT 18/M06 A2986 RMK A01 T01841063  RH  018%=      5-min Rain = 0
KBR1 132024Z 30023KT 19/M06 A2986 RMK A01 T01851061  RH  018%=      5-min Rain = 0
KBR1 132025Z 31021KT 19/M06 A2986 RMK A01 T01851060  RH  018%=      5-min Rain = 0
KBR1 132026Z 30022KT 19/M06 A2986 RMK A01 T01861059  RH  018%=      5-min Rain = 0
KBR1 132027Z 31022KT 19/M06 A2986 RMK A01 T01861059  RH  018%=      5-min Rain = 0
KBR1 132028Z 31022KT 19/M06 A2986 RMK A01 T01861060  RH  018%=      5-min Rain = 0
KBR1 132029Z 31025KT 19/M06 A2986 RMK A01 T01851058  RH  019%=      5-min Rain = 0
KBR1 132030Z 30022KT 19/M06 A2986 RMK A01 T01851057  RH  019%=      5-min Rain = 0
KBR1 132031Z 31023KT 18/M06 A2986 RMK A01 T01841059  RH  019%=      5-min Rain = 0
KBR1 132032Z 31020G25KT 19/M06 A2986 RMK A01 T01851059  RH  018%=      5-min Rain = 0
KBR1 132033Z 32018G24KT 19/M06 A2985 RMK A01 T01861057  RH  019%=      5-min Rain = 0
KBR1 132034Z 31022G27KT 19/M06 A2985 RMK A01 T01881055  RH  019%=      5-min Rain = 0
KBR1 132035Z 31023KT 19/M06 A2985 RMK A01 T01881057  RH  018%=      5-min Rain = 0
KBR1 132036Z 30021KT 19/M06 A2985 RMK A01 T01871057  RH  019%=      5-min Rain = 0
KBR1 132037Z 30020KT 19/M06 A2985 RMK A01 T01861056  RH  019%=      5-min Rain = 0
KBR1 132038Z 31021G26KT 19/M05 A2985 RMK A01 T01881054  RH  019%=      5-min Rain = 0
KBR1 132039Z 30024KT 19/M06 A2985 RMK A01 T01881055  RH  019%=      5-min Rain = 0
KBR1 132040Z 31019KT 19/M05 A2985 RMK A01 T01871054  RH  019%=      5-min Rain = 0
KBR1 132041Z 31022KT 19/M05 A2985 RMK A01 T01871053  RH  019%=      5-min Rain = 0
KBR1 132042Z 31020KT 19/M05 A2985 RMK A01 T01861054  RH  019%=      5-min Rain = 0
KBR1 132043Z 31016KT 19/M05 A2985 RMK A01 T01851054  RH  019%=      5-min Rain = 0
KBR1 132044Z 30016KT 19/M05 A2985 RMK A01 T01851054  RH  019%=      5-min Rain = 0
KBR1 132045Z 30017KT 19/M05 A2985 RMK A01 T01861054  RH  019%=      5-min Rain = 0
KBR1 132046Z 31015G20KT 19/M05 A2985 RMK A01 T01861053  RH  019%=      5-min Rain = 0
KBR1 132047Z 30016KT 19/M05 A2985 RMK A01 T01861054  RH  019%=      5-min Rain = 0
KBR1 132048Z 31017G24KT 19/M05 A2985 RMK A01 T01851054  RH  019%=      5-min Rain = 0
KBR1 132049Z 31018KT 19/M05 A2985 RMK A01 T01861054  RH  019%=      5-min Rain = 0
KBR1 132050Z 31017KT 19/M05 A2985 RMK A01 T01851054  RH  019%=      5-min Rain = 0
KBR1 132051Z 32017KT 19/M05 A2985 RMK A01 T01861054  RH  019%=      5-min Rain = 0
KBR1 132052Z 31016KT 19/M05 A2985 RMK A01 T01861053  RH  019%=      5-min Rain = 0
KBR1 132053Z 31013KT 19/M05 A2985 RMK A01 T01861052  RH  019%=      5-min Rain = 0
KBR1 132054Z 32014KT 19/M05 A2985 RMK A01 T01881051  RH  019%=      5-min Rain = 0
KBR1 132055Z 32016KT 19/M05 A2985 RMK A01 T01891052  RH  019%=      5-min Rain = 0
KBR1 132056Z 32015KT 19/M05 A2985 RMK A01 T01881052  RH  019%=      5-min Rain = 0
KBR1 132057Z 32017KT 19/M05 A2985 RMK A01 T01881051  RH  019%=      5-min Rain = 0
KBR1 132058Z 31018KT 19/M05 A2985 RMK A01 T01881052  RH  019%=      5-min Rain = 0
KBR1 132059Z 30015KT 19/M05 A2985 RMK A01 T01871053  RH  019%=      5-min Rain = 0
KBR1 132100Z 30013KT 19/M05 A2985 RMK A01 T01861054  RH  019%=      5-min Rain = 0
KBR1 132101Z 30012KT 19/M05 A2985 RMK A01 T01861053  RH  019%=      5-min Rain = 0
KBR1 132102Z 30014KT 19/M05 A2985 RMK A01 T01871052  RH  019%=      5-min Rain = 0
KBR1 132103Z 31013KT 19/M05 A2985 RMK A01 T01881052  RH  019%=      5-min Rain = 0
KBR1 132104Z 31015KT 19/M05 A2985 RMK A01 T01891052  RH  019%=      5-min Rain = 0
KBR1 132105Z 30017KT 19/M05 A2985 RMK A01 T01891054  RH  019%=      5-min Rain = 0
KBR1 132106Z 30018KT 19/M06 A2985 RMK A01 T01891056  RH  019%=      5-min Rain = 0
KBR1 132107Z 29017KT 19/M06 A2985 RMK A01 T01891057  RH  018%=      5-min Rain = 0
KBR1 132108Z 29016KT 19/M06 A2985 RMK A01 T01891056  RH  018%=      5-min Rain = 0
KBR1 132109Z 29016KT 19/M06 A2985 RMK A01 T01891056  RH  018%=      5-min Rain = 0
KBR1 132110Z 29015KT 19/M06 A2985 RMK A01 T01891056  RH  018%=      5-min Rain = 0
KBR1 132111Z 30015KT 19/M05 A2985 RMK A01 T01881054  RH  019%=      5-min Rain = 0
KBR1 132112Z 31017KT 19/M05 A2985 RMK A01 T01891054  RH  019%=      5-min Rain = 0
KBR1 132113Z 31014G19KT 19/M05 A2985 RMK A01 T01891053  RH  019%=      5-min Rain = 0
KBR1 132114Z 30016KT 19/M06 A2985 RMK A01 T01891055  RH  019%=      5-min Rain = 0
KBR1 132115Z 29014KT 19/M06 A2985 RMK A01 T01901056  RH  018%=      5-min Rain = 0
KBR1 132116Z 29016KT 19/M06 A2985 RMK A01 T01921058  RH  018%=      5-min Rain = 0
KBR1 132117Z 29018KT 19/M06 A2985 RMK A01 T01921061  RH  018%=      5-min Rain = 0
KBR1 132118Z 29017KT 19/M06 A2985 RMK A01 T01911061  RH  018%=      5-min Rain = 0
KBR1 132119Z 28016KT 19/M06 A2985 RMK A01 T01901061  RH  018%=      5-min Rain = 0
KBR1 132120Z 29015G20KT 19/M06 A2985 RMK A01 T01911062  RH  018%=      5-min Rain = 0
KBR1 132121Z 30012KT 19/M06 A2985 RMK A01 T01911060  RH  018%=      5-min Rain = 0
KBR1 132122Z 29015G20KT 19/M06 A2985 RMK A01 T01911061  RH  018%=      5-min Rain = 0
KBR1 132123Z 31018G23KT 19/M06 A2985 RMK A01 T01911061  RH  017%=      5-min Rain = 0
KBR1 132124Z 31018KT 19/M06 A2985 RMK A01 T01911063  RH  017%=      5-min Rain = 0
KBR1 132125Z 30018KT 19/M06 A2985 RMK A01 T01901063  RH  017%=      5-min Rain = 0
KBR1 132126Z 30019KT 19/M06 A2985 RMK A01 T01891062  RH  018%=      5-min Rain = 0
KBR1 132127Z 31016KT 19/M06 A2985 RMK A01 T01881063  RH  018%=      5-min Rain = 0
KBR1 132128Z 32017KT 19/M06 A2985 RMK A01 T01881062  RH  018%=      5-min Rain = 0
KBR1 132129Z 32015KT 19/M06 A2985 RMK A01 T01881062  RH  018%=      5-min Rain = 0
KBR1 132130Z 32015KT 19/M06 A2985 RMK A01 T01881062  RH  018%=      5-min Rain = 0
KBR1 132131Z 32015G20KT 19/M06 A2985 RMK A01 T01881062  RH  018%=      5-min Rain = 0
KBR1 132132Z 31017KT 19/M06 A2985 RMK A01 T01881062  RH  018%=      5-min Rain = 0
KBR1 132133Z 30016G22KT 19/M06 A2986 RMK A01 T01891060  RH  018%=      5-min Rain = 0
KBR1 132134Z 29019KT 19/M07 A2986 RMK A01 T01901065  RH  017%=      5-min Rain = 0
KBR1 132135Z 29019KT 19/M07 A2986 RMK A01 T01901066  RH  017%=      5-min Rain = 0
KBR1 132136Z 29017KT 19/M07 A2986 RMK A01 T01901067  RH  017%=      5-min Rain = 0
KBR1 132137Z 29019KT 19/M07 A2986 RMK A01 T01891069  RH  017%=      5-min Rain = 0
KBR1 132138Z 29018KT 19/M07 A2986 RMK A01 T01891070  RH  017%=      5-min Rain = 0
KBR1 132139Z 29017KT 19/M07 A2986 RMK A01 T01881070  RH  017%=      5-min Rain = 0
KBR1 132140Z 29015KT 19/M07 A2986 RMK A01 T01891070  RH  017%=      5-min Rain = 0
KBR1 132141Z 29016KT 19/M07 A2985 RMK A01 T01891068  RH  017%=      5-min Rain = 0
KBR1 132142Z 29013KT 19/M07 A2985 RMK A01 T01901069  RH  017%=      5-min Rain = 0
KBR1 132143Z 30013G18KT 19/M07 A2985 RMK A01 T01901068  RH  017%=      5-min Rain = 0
KBR1 132144Z 30017KT 19/M07 A2985 RMK A01 T01901067  RH  017%=      5-min Rain = 0
KBR1 132145Z 30016KT 19/M07 A2985 RMK A01 T01901066  RH  017%=      5-min Rain = 0
KBR1 132146Z 31020G25KT 19/M06 A2984 RMK A01 T01901064  RH  017%=      5-min Rain = 0
KBR1 132147Z 30018KT 19/M06 A2985 RMK A01 T01901064  RH  017%=      5-min Rain = 0
KBR1 132148Z 30015KT 19/M06 A2985 RMK A01 T01891063  RH  017%=      5-min Rain = 0
KBR1 132149Z 30017KT 19/M06 A2985 RMK A01 T01891063  RH  017%=      5-min Rain = 0
KBR1 132150Z 30016KT 19/M06 A2985 RMK A01 T01891064  RH  017%=      5-min Rain = 0
KBR1 132151Z 30015KT 19/M06 A2985 RMK A01 T01891062  RH  018%=      5-min Rain = 0
KBR1 132152Z 31017KT 19/M06 A2985 RMK A01 T01881064  RH  017%=      5-min Rain = 0
KBR1 132153Z 31016KT 19/M07 A2986 RMK A01 T01881065  RH  017%=      5-min Rain = 0
KBR1 132154Z 30016KT 19/M07 A2986 RMK A01 T01881065  RH  017%=      5-min Rain = 0
KBR1 132155Z 31012KT 19/M06 A2986 RMK A01 T01891064  RH  017%=      5-min Rain = 0
KBR1 132156Z 31013KT 19/M06 A2986 RMK A01 T01901063  RH  017%=      5-min Rain = 0
KBR1 132157Z 31015G20KT 19/M06 A2986 RMK A01 T01901064  RH  017%=      5-min Rain = 0
KBR1 132158Z 31015G21KT 19/M07 A2986 RMK A01 T01901066  RH  017%=      5-min Rain = 0
KBR1 132159Z 30016KT 19/M07 A2986 RMK A01 T01901065  RH  017%=      5-min Rain = 0
KBR1 132200Z 31014KT 19/M07 A2986 RMK A01 T01901066  RH  017%=      5-min Rain = 0
KBR1 132201Z 30017G24KT 19/M06 A2986 RMK A01 T01891063  RH  017%=      5-min Rain = 0
KBR1 132202Z 30020KT 19/M06 A2986 RMK A01 T01891064  RH  017%=      5-min Rain = 0
KBR1 132203Z 30019KT 19/M07 A2986 RMK A01 T01871065  RH  017%=      5-min Rain = 0
KBR1 132204Z 29017G23KT 19/M06 A2987 RMK A01 T01861063  RH  018%=      5-min Rain = 0
KBR1 132205Z 30019KT 19/M06 A2987 RMK A01 T01871063  RH  018%=      5-min Rain = 0
KBR1 132206Z 30017KT 19/M06 A2987 RMK A01 T01861064  RH  018%=      5-min Rain = 0
KBR1 132207Z 30019KT 19/M06 A2987 RMK A01 T01861063  RH  018%=      5-min Rain = 0
KBR1 132208Z 30017KT 19/M06 A2987 RMK A01 T01861064  RH  018%=      5-min Rain = 0
KBR1 132209Z 30017KT 19/M06 A2987 RMK A01 T01861064  RH  018%=      5-min Rain = 0
KBR1 132210Z 29019KT 19/M06 A2987 RMK A01 T01861064  RH  018%=      5-min Rain = 0
KBR1 132211Z 30020KT 19/M07 A2987 RMK A01 T01851065  RH  018%=      5-min Rain = 0
KBR1 132212Z 30019KT 19/M07 A2987 RMK A01 T01851065  RH  018%=      5-min Rain = 0
KBR1 132213Z 30019G24KT 18/M07 A2987 RMK A01 T01841065  RH  018%=      5-min Rain = 0
KBR1 132214Z 30017KT 18/M07 A2986 RMK A01 T01841065  RH  018%=      5-min Rain = 0
KBR1 132215Z 30015KT 18/M07 A2986 RMK A01 T01841065  RH  018%=      5-min Rain = 0
KBR1 132216Z 29014KT 18/M07 A2986 RMK A01 T01841066  RH  018%=      5-min Rain = 0
KBR1 132217Z 30016KT 18/M07 A2986 RMK A01 T01841067  RH  018%=      5-min Rain = 0
KBR1 132218Z 30015KT 18/M07 A2986 RMK A01 T01841068  RH  017%=      5-min Rain = 0
KBR1 132219Z 29015KT 18/M07 A2986 RMK A01 T01831069  RH  017%=      5-min Rain = 0
KBR1 132220Z 29011KT 18/M07 A2986 RMK A01 T01831067  RH  018%=      5-min Rain = 0
KBR1 132221Z 30012KT 18/M07 A2986 RMK A01 T01831066  RH  018%=      5-min Rain = 0
KBR1 132222Z 29016G21KT 18/M07 A2986 RMK A01 T01831067  RH  018%=      5-min Rain = 0
KBR1 132223Z 29017KT 18/M07 A2986 RMK A01 T01831068  RH  017%=      5-min Rain = 0
KBR1 132224Z 29015G20KT 18/M07 A2986 RMK A01 T01831067  RH  018%=      5-min Rain = 0
KBR1 132225Z 30015G20KT 18/M07 A2986 RMK A01 T01831067  RH  018%=      5-min Rain = 0
KBR1 132226Z 29019KT 18/M07 A2986 RMK A01 T01831067  RH  018%=      5-min Rain = 0
KBR1 132227Z 29018KT 18/M07 A2986 RMK A01 T01821069  RH  017%=      5-min Rain = 0
KBR1 132228Z 29019KT 18/M07 A2986 RMK A01 T01821069  RH  017%=      5-min Rain = 0
KBR1 132229Z 29019KT 18/M07 A2986 RMK A01 T01811070  RH  017%=      5-min Rain = 0
KBR1 132230Z 29018KT 18/M07 A2986 RMK A01 T01811071  RH  017%=      5-min Rain = 0
KBR1 132231Z 29016KT 18/M07 A2986 RMK A01 T01811071  RH  017%=      5-min Rain = 0
KBR1 132232Z 29015G22KT 18/M07 A2986 RMK A01 T01811069  RH  018%=      5-min Rain = 0
KBR1 132233Z 29017KT 18/M07 A2986 RMK A01 T01811070  RH  017%=      5-min Rain = 0
KBR1 132234Z 28014G20KT 18/M07 A2986 RMK A01 T01801070  RH  018%=      5-min Rain = 0
KBR1 132235Z 29019KT 18/M07 A2986 RMK A01 T01801070  RH  017%=      5-min Rain = 0
KBR1 132236Z 29020KT 18/M07 A2986 RMK A01 T01811071  RH  017%=      5-min Rain = 0
KBR1 132237Z 30016G21KT 18/M07 A2986 RMK A01 T01801071  RH  017%=      5-min Rain = 0
KBR1 132238Z 31014G19KT 18/M07 A2987 RMK A01 T01801069  RH  018%=      5-min Rain = 0
KBR1 132239Z 31019KT 18/M07 A2987 RMK A01 T01791072  RH  017%=      5-min Rain = 0
KBR1 132240Z 30016G24KT 18/M07 A2987 RMK A01 T01791072  RH  017%=      5-min Rain = 0
KBR1 132241Z 31020KT 18/M07 A2986 RMK A01 T01781072  RH  017%=      5-min Rain = 0
KBR1 132242Z 30015KT 18/M07 A2986 RMK A01 T01781072  RH  017%=      5-min Rain = 0
KBR1 132243Z 30013KT 18/M07 A2986 RMK A01 T01781071  RH  018%=      5-min Rain = 0
KBR1 132244Z 30015KT 18/M07 A2986 RMK A01 T01781071  RH  018%=      5-min Rain = 0
KBR1 132245Z 30017G22KT 18/M07 A2986 RMK A01 T01771072  RH  018%=      5-min Rain = 0
KBR1 132246Z 30018KT 18/M07 A2987 RMK A01 T01771073  RH  017%=      5-min Rain = 0
KBR1 132247Z 30017G23KT 18/M07 A2987 RMK A01 T01771073  RH  017%=      5-min Rain = 0
KBR1 132248Z 30018KT 18/M07 A2987 RMK A01 T01771074  RH  017%=      5-min Rain = 0
KBR1 132249Z 30017KT 18/M07 A2987 RMK A01 T01771073  RH  018%=      5-min Rain = 0
KBR1 132250Z 31020KT 18/M07 A2987 RMK A01 T01761074  RH  018%=      5-min Rain = 0
KBR1 132251Z 30018G23KT 18/M07 A2987 RMK A01 T01751074  RH  018%=      5-min Rain = 0
KBR1 132252Z 31022KT 18/M07 A2987 RMK A01 T01751074  RH  018%=      5-min Rain = 0
KBR1 132253Z 30020KT 18/M08 A2987 RMK A01 T01751075  RH  017%=      5-min Rain = 0
KBR1 132254Z 30019KT 18/M08 A2987 RMK A01 T01751075  RH  017%=      5-min Rain = 0
KBR1 132255Z 30019KT 17/M08 A2987 RMK A01 T01741075  RH  018%=      5-min Rain = 0
KBR1 132256Z 30019KT 17/M08 A2987 RMK A01 T01741075  RH  017%=      5-min Rain = 0
KBR1 132257Z 30020KT 17/M08 A2987 RMK A01 T01731077  RH  017%=      5-min Rain = 0
KBR1 132258Z 30019KT 17/M08 A2987 RMK A01 T01741077  RH  017%=      5-min Rain = 0
KBR1 132259Z 30017KT 17/M08 A2987 RMK A01 T01731077  RH  017%=      5-min Rain = 0
KBR1 132300Z 30018KT 17/M08 A2987 RMK A01 T01731077  RH  017%=      5-min Rain = 0
KBR1 132301Z 29016G21KT 17/M08 A2987 RMK A01 T01721078  RH  017%=      5-min Rain = 0
KBR1 132302Z 30018KT 17/M08 A2987 RMK A01 T01721078  RH  017%=      5-min Rain = 0
KBR1 132303Z 30016KT 17/M08 A2987 RMK A01 T01721077  RH  017%=      5-min Rain = 0
KBR1 132304Z 30015KT 17/M08 A2987 RMK A01 T01711077  RH  018%=      5-min Rain = 0
KBR1 132305Z 30015KT 17/M08 A2987 RMK A01 T01701077  RH  018%=      5-min Rain = 0
KBR1 132306Z 30015KT 17/M08 A2987 RMK A01 T01691077  RH  018%=      5-min Rain = 0
KBR1 132307Z 29015KT 17/M08 A2988 RMK A01 T01691076  RH  018%=      5-min Rain = 0
KBR1 132308Z 29015G20KT 17/M08 A2988 RMK A01 T01681077  RH  018%=      5-min Rain = 0
KBR1 132309Z 30019KT 17/M08 A2988 RMK A01 T01681076  RH  018%=      5-min Rain = 0
KBR1 132310Z 30018KT 17/M08 A2988 RMK A01 T01681077  RH  018%=      5-min Rain = 0
KBR1 132311Z 29016KT 17/M08 A2988 RMK A01 T01681077  RH  018%=      5-min Rain = 0
KBR1 132312Z 30015KT 17/M08 A2987 RMK A01 T01681077  RH  018%=      5-min Rain = 0
KBR1 132313Z 30015KT 17/M08 A2987 RMK A01 T01661077  RH  018%=      5-min Rain = 0
KBR1 132314Z 30013KT 17/M08 A2987 RMK A01 T01651077  RH  018%=      5-min Rain = 0
KBR1 132315Z 30014KT 17/M08 A2987 RMK A01 T01651077  RH  018%=      5-min Rain = 0
KBR1 132316Z 30014KT 17/M08 A2987 RMK A01 T01651077  RH  018%=      5-min Rain = 0
KBR1 132317Z 30014KT 16/M08 A2987 RMK A01 T01641077  RH  018%=      5-min Rain = 0
KBR1 132318Z 30013KT 16/M08 A2987 RMK A01 T01631077  RH  019%=      5-min Rain = 0
KBR1 132319Z 30012KT 16/M08 A2987 RMK A01 T01631076  RH  019%=      5-min Rain = 0
KBR1 132320Z 29012KT 16/M08 A2987 RMK A01 T01611077  RH  019%=      5-min Rain = 0
KBR1 132321Z 29012KT 16/M08 A2988 RMK A01 T01601076  RH  019%=      5-min Rain = 0
KBR1 132322Z 29012KT 16/M08 A2988 RMK A01 T01591077  RH  019%=      5-min Rain = 0
KBR1 132323Z 29012KT 16/M08 A2988 RMK A01 T01581077  RH  019%=      5-min Rain = 0
KBR1 132324Z 29012KT 16/M08 A2988 RMK A01 T01571077  RH  019%=      5-min Rain = 0
KBR1 132325Z 29011KT 16/M08 A2988 RMK A01 T01561077  RH  019%=      5-min Rain = 0
KBR1 132326Z 29011KT 16/M08 A2988 RMK A01 T01551076  RH  020%=      5-min Rain = 0
KBR1 132327Z 29010KT 15/M08 A2988 RMK A01 T01521076  RH  020%=      5-min Rain = 0
KBR1 132328Z 29009KT 15/M08 A2988 RMK A01 T01501076  RH  020%=      5-min Rain = 0
KBR1 132329Z 29011KT 15/M08 A2988 RMK A01 T01481076  RH  020%=      5-min Rain = 0
KBR1 132330Z 29010KT 15/M08 A2988 RMK A01 T01481076  RH  021%=      5-min Rain = 0
KBR1 132331Z 29010KT 15/M08 A2988 RMK A01 T01481076  RH  021%=      5-min Rain = 0
KBR1 132332Z 29010KT 15/M08 A2988 RMK A01 T01471076  RH  021%=      5-min Rain = 0
KBR1 132333Z 30010KT 15/M08 A2988 RMK A01 T01461076  RH  021%=      5-min Rain = 0
KBR1 132334Z 29009KT 15/M08 A2988 RMK A01 T01451076  RH  021%=      5-min Rain = 0
KBR1 132335Z 30009KT 14/M08 A2988 RMK A01 T01441076  RH  021%=      5-min Rain = 0
KBR1 132336Z 30009KT 14/M08 A2988 RMK A01 T01431076  RH  021%=      5-min Rain = 0
KBR1 132337Z 30008KT 14/M08 A2988 RMK A01 T01411076  RH  022%=      5-min Rain = 0
KBR1 132338Z 30008KT 14/M08 A2988 RMK A01 T01391075  RH  022%=      5-min Rain = 0
KBR1 132339Z 30008KT 14/M08 A2988 RMK A01 T01361076  RH  022%=      5-min Rain = 0
KBR1 132340Z 30007KT 13/M08 A2988 RMK A01 T01331076  RH  023%=      5-min Rain = 0
KBR1 132341Z 30007KT 13/M08 A2988 RMK A01 T01311076  RH  023%=      5-min Rain = 0
KBR1 132342Z 31006KT 13/M08 A2988 RMK A01 T01281076  RH  023%=      5-min Rain = 0
KBR1 132343Z 31006KT 13/M08 A2988 RMK A01 T01251076  RH  024%=      5-min Rain = 0
KBR1 132344Z 30006KT 12/M08 A2988 RMK A01 T01241076  RH  024%=      5-min Rain = 0
KBR1 132345Z 30007KT 12/M08 A2988 RMK A01 T01221076  RH  024%=      5-min Rain = 0
KBR1 132346Z 29007KT 12/M08 A2988 RMK A01 T01221076  RH  024%=      5-min Rain = 0
KBR1 132347Z 29007KT 12/M08 A2988 RMK A01 T01221076  RH  024%=      5-min Rain = 0
KBR1 132348Z 29008KT 12/M08 A2988 RMK A01 T01221076  RH  024%=      5-min Rain = 0
KBR1 132349Z 29009KT 12/M08 A2988 RMK A01 T01211076  RH  024%=      5-min Rain = 0
KBR1 132350Z 29009KT 12/M08 A2988 RMK A01 T01211075  RH  025%=      5-min Rain = 0
KBR1 132351Z 29008KT 12/M08 A2988 RMK A01 T01211075  RH  025%=      5-min Rain = 0
KBR1 132352Z 29009KT 12/M08 A2988 RMK A01 T01201075  RH  025%=      5-min Rain = 0
KBR1 132353Z 29008KT 12/M07 A2988 RMK A01 T01191074  RH  025%=      5-min Rain = 0
KBR1 132354Z 29008KT 12/M07 A2988 RMK A01 T01181074  RH  025%=      5-min Rain = 0
KBR1 132355Z 29009KT 12/M07 A2988 RMK A01 T01171074  RH  026%=      5-min Rain = 0
KBR1 132356Z 30008KT 12/M07 A2988 RMK A01 T01171073  RH  026%=      5-min Rain = 0
KBR1 132357Z 30008KT 12/M07 A2988 RMK A01 T01161073  RH  026%=      5-min Rain = 0
KBR1 132358Z 30008KT 11/M07 A2988 RMK A01 T01141073  RH  026%=      5-min Rain = 0
KBR1 132359Z 30007KT 11/M07 A2988 RMK A01 T01121073  RH  027%=      5-min Rain = 0
KBR1 140000Z 31007KT 11/M07 A2988 RMK A01 T01091074  RH  027%=      5-min Rain = 0
KBR1 140001Z 32007KT 11/M08 A2988 RMK A01 T01051075  RH  027%=      5-min Rain = 0
KBR1 140002Z 31008KT 10/M08 A2988 RMK A01 T01031075  RH  028%=      5-min Rain = 0
KBR1 140003Z 31008KT 10/M08 A2988 RMK A01 T01011075  RH  028%=      5-min Rain = 0
KBR1 140004Z 31008KT 10/M08 A2988 RMK A01 T01011075  RH  028%=      5-min Rain = 0
KBR1 140005Z 31007KT 10/M07 A2988 RMK A01 T01001074  RH  029%=      5-min Rain = 0
KBR1 140006Z 31007KT 10/M08 A2988 RMK A01 T00991075  RH  029%=      5-min Rain = 0
KBR1 140007Z 31007KT 10/M08 A2988 RMK A01 T00971075  RH  029%=      5-min Rain = 0
KBR1 140008Z 31008KT 10/M08 A2989 RMK A01 T00961075  RH  029%=      5-min Rain = 0
KBR1 140009Z 31008KT 09/M07 A2989 RMK A01 T00941074  RH  030%=      5-min Rain = 0
KBR1 140010Z 31008KT 09/M07 A2989 RMK A01 T00931074  RH  030%=      5-min Rain = 0
KBR1 140011Z 31007KT 09/M07 A2989 RMK A01 T00931074  RH  030%=      5-min Rain = 0
KBR1 140012Z 31008KT 09/M07 A2989 RMK A01 T00911073  RH  030%=      5-min Rain = 0
KBR1 140013Z 30008KT 09/M07 A2988 RMK A01 T00901073  RH  031%=      5-min Rain = 0
KBR1 140014Z 30008KT 09/M07 A2988 RMK A01 T00881073  RH  031%=      5-min Rain = 0
KBR1 140015Z 30008KT 09/M07 A2988 RMK A01 T00871073  RH  032%=      5-min Rain = 0
KBR1 140016Z 30009KT 09/M07 A2989 RMK A01 T00861073  RH  032%=      5-min Rain = 0
KBR1 140017Z 30009KT 09/M07 A2989 RMK A01 T00861073  RH  032%=      5-min Rain = 0
KBR1 140018Z 30009KT 09/M07 A2989 RMK A01 T00851073  RH  032%=      5-min Rain = 0
KBR1 140019Z 30009KT 08/M07 A2989 RMK A01 T00831073  RH  032%=      5-min Rain = 0
KBR1 140020Z 30009KT 08/M07 A2989 RMK A01 T00801073  RH  033%=      5-min Rain = 0
KBR1 140021Z 30008KT 08/M07 A2989 RMK A01 T00791073  RH  033%=      5-min Rain = 0
KBR1 140022Z 30008KT 08/M07 A2989 RMK A01 T00781072  RH  034%=      5-min Rain = 0
KBR1 140023Z 30008KT 08/M07 A2989 RMK A01 T00771072  RH  034%=      5-min Rain = 0
KBR1 140024Z 30008KT 08/M07 A299 RMK A01 T00761072  RH  034%=      5-min Rain = 0
KBR1 140025Z 30008KT 08/M07 A299 RMK A01 T00751071  RH  034%=      5-min Rain = 0
KBR1 140026Z 30008KT 08/M07 A299 RMK A01 T00751071  RH  035%=      5-min Rain = 0
KBR1 140027Z 31008KT 08/M07 A299 RMK A01 T00751071  RH  035%=      5-min Rain = 0
KBR1 140028Z 31008KT 08/M07 A299 RMK A01 T00751071  RH  035%=      5-min Rain = 0
KBR1 140029Z 31008KT 08/M07 A299 RMK A01 T00751070  RH  035%=      5-min Rain = 0
KBR1 140030Z 31008KT 08/M07 A299 RMK A01 T00751070  RH  035%=      5-min Rain = 0
KBR1 140031Z 31008KT 08/M07 A299 RMK A01 T00751070  RH  035%=      5-min Rain = 0
KBR1 140032Z 31008KT 08/M07 A299 RMK A01 T00761070  RH  035%=      5-min Rain = 0
KBR1 140033Z 31008KT 08/M07 A299 RMK A01 T00771070  RH  035%=      5-min Rain = 0
KBR1 140034Z 31008KT 08/M07 A299 RMK A01 T00771069  RH  035%=      5-min Rain = 0
KBR1 140035Z 31008KT 08/M07 A299 RMK A01 T00771070  RH  035%=      5-min Rain = 0
KBR1 140036Z 31008KT 08/M07 A299 RMK A01 T00771069  RH  035%=      5-min Rain = 0
KBR1 140037Z 31008KT 08/M07 A299 RMK A01 T00781069  RH  035%=      5-min Rain = 0
KBR1 140038Z 31008KT 08/M07 A299 RMK A01 T00791069  RH  034%=      5-min Rain = 0
KBR1 140039Z 31008KT 08/M07 A299 RMK A01 T00801069  RH  034%=      5-min Rain = 0
KBR1 140040Z 31008KT 08/M07 A299 RMK A01 T00801068  RH  034%=      5-min Rain = 0
KBR1 140041Z 31007KT 08/M07 A299 RMK A01 T00801068  RH  034%=      5-min Rain = 0
KBR1 140042Z 31008KT 08/M07 A299 RMK A01 T00811068  RH  034%=      5-min Rain = 0
KBR1 140043Z 31008KT 08/M07 A2991 RMK A01 T00821068  RH  034%=      5-min Rain = 0
KBR1 140044Z 31008KT 08/M07 A2991 RMK A01 T00831067  RH  034%=      5-min Rain = 0
KBR1 140045Z 30009KT 08/M07 A2991 RMK A01 T00831067  RH  034%=      5-min Rain = 0
KBR1 140046Z 30010KT 08/M07 A2991 RMK A01 T00841067  RH  034%=      5-min Rain = 0
KBR1 140047Z 30010KT 09/M07 A2991 RMK A01 T00851068  RH  033%=      5-min Rain = 0
KBR1 140048Z 30009KT 09/M07 A2991 RMK A01 T00861067  RH  033%=      5-min Rain = 0
KBR1 140049Z 30009KT 09/M07 A2991 RMK A01 T00861067  RH  033%=      5-min Rain = 0
KBR1 140050Z 30009KT 09/M07 A2991 RMK A01 T00871067  RH  033%=      5-min Rain = 0
KBR1 140051Z 30009KT 09/M07 A2991 RMK A01 T00871067  RH  033%=      5-min Rain = 0
KBR1 140052Z 30010KT 09/M07 A2991 RMK A01 T00891067  RH  033%=      5-min Rain = 0
KBR1 140053Z 30010KT 09/M07 A2991 RMK A01 T00901068  RH  032%=      5-min Rain = 0
KBR1 140054Z 30010KT 09/M07 A2991 RMK A01 T00931068  RH  032%=      5-min Rain = 0
KBR1 140055Z 30010KT 10/M07 A2991 RMK A01 T00951068  RH  031%=      5-min Rain = 0
KBR1 140056Z 30009KT 10/M07 A2991 RMK A01 T00961068  RH  031%=      5-min Rain = 0
KBR1 140057Z 30009KT 10/M07 A2991 RMK A01 T00971068  RH  031%=      5-min Rain = 0
KBR1 140058Z 30009KT 10/M07 A2991 RMK A01 T00971068  RH  031%=      5-min Rain = 0
KBR1 140059Z 31010KT 10/M07 A2991 RMK A01 T00971068  RH  031%=      5-min Rain = 0
KBR1 140100Z 31010KT 10/M07 A2991 RMK A01 T00971068  RH  030%=      5-min Rain = 0
KBR1 140101Z 32009KT 10/M07 A2991 RMK A01 T00981068  RH  030%=      5-min Rain = 0
KBR1 140102Z 33009KT 10/M07 A2992 RMK A01 T00991068  RH  030%=      5-min Rain = 0
KBR1 140103Z 36009KT 10/M07 A2992 RMK A01 T01001067  RH  030%=      5-min Rain = 0
KBR1 140104Z 00012KT 10/M07 A2992 RMK A01 T00991065  RH  031%=      5-min Rain = 0
KBR1 140105Z 34013KT 10/M07 A2992 RMK A01 T01001069  RH  030%=      5-min Rain = 0
KBR1 140106Z 33013KT 11/M07 A2993 RMK A01 T01061073  RH  028%=      5-min Rain = 0
KBR1 140107Z 33013KT 11/M07 A2993 RMK A01 T01091074  RH  027%=      5-min Rain = 0
KBR1 140108Z 32012KT 11/M08 A2993 RMK A01 T01101075  RH  027%=      5-min Rain = 0
KBR1 140109Z 32012KT 11/M08 A2993 RMK A01 T01101076  RH  026%=      5-min Rain = 0
KBR1 140110Z 33010KT 11/M08 A2993 RMK A01 T01101076  RH  026%=      5-min Rain = 0
KBR1 140111Z 32009KT 11/M08 A2993 RMK A01 T01111076  RH  026%=      5-min Rain = 0
KBR1 140112Z 32010G16KT 11/M08 A2993 RMK A01 T01111075  RH  027%=      5-min Rain = 0
KBR1 140113Z 31010KT 11/M08 A2993 RMK A01 T01101075  RH  027%=      5-min Rain = 0
KBR1 140114Z 33010KT 11/M08 A2993 RMK A01 T01101075  RH  027%=      5-min Rain = 0
KBR1 140115Z 33011KT 11/M07 A2993 RMK A01 T01131074  RH  026%=      5-min Rain = 0
KBR1 140116Z 33013KT 12/M08 A2993 RMK A01 T01191076  RH  025%=      5-min Rain = 0
KBR1 140117Z 33013KT 12/M08 A2993 RMK A01 T01241077  RH  024%=      5-min Rain = 0
KBR1 140118Z 33013KT 13/M08 A2993 RMK A01 T01251079  RH  023%=      5-min Rain = 0
KBR1 140119Z 34011KT 13/M08 A2992 RMK A01 T01251079  RH  023%=      5-min Rain = 0
KBR1 140120Z 34010KT 12/M08 A2992 RMK A01 T01231079  RH  024%=      5-min Rain = 0
KBR1 140121Z 34010KT 12/M08 A2992 RMK A01 T01211079  RH  024%=      5-min Rain = 0
KBR1 140122Z 35009KT 12/M08 A2992 RMK A01 T01191078  RH  024%=      5-min Rain = 0
KBR1 140123Z 35008KT 12/M08 A2992 RMK A01 T01171077  RH  025%=      5-min Rain = 0
KBR1 140124Z 35009KT 12/M08 A2993 RMK A01 T01151077  RH  025%=      5-min Rain = 0
KBR1 140125Z 35009KT 11/M08 A2993 RMK A01 T01141077  RH  025%=      5-min Rain = 0
KBR1 140126Z 34009KT 11/M08 A2993 RMK A01 T01141077  RH  025%=      5-min Rain = 0
KBR1 140127Z 34008KT 11/M08 A2993 RMK A01 T01141077  RH  025%=      5-min Rain = 0
KBR1 140128Z 35008KT 11/M08 A2992 RMK A01 T01131077  RH  026%=      5-min Rain = 0
KBR1 140129Z 35008KT 11/M08 A2992 RMK A01 T01121077  RH  026%=      5-min Rain = 0
KBR1 140130Z 35009KT 11/M08 A2993 RMK A01 T01111078  RH  026%=      5-min Rain = 0
KBR1 140131Z 35010KT 11/M08 A2993 RMK A01 T01111078  RH  026%=      5-min Rain = 0
KBR1 140132Z 00010KT 11/M08 A2993 RMK A01 T01101078  RH  026%=      5-min Rain = 0
KBR1 140133Z 01010KT 11/M08 A2993 RMK A01 T01101078  RH  026%=      5-min Rain = 0
KBR1 140134Z 35010KT 11/M08 A2993 RMK A01 T01101078  RH  026%=      5-min Rain = 0
KBR1 140135Z 35008KT 11/M08 A2993 RMK A01 T01091077  RH  026%=      5-min Rain = 0
KBR1 140136Z 36007KT 11/M08 A2993 RMK A01 T01071075  RH  027%=      5-min Rain = 0
KBR1 140137Z 00007KT 11/M08 A2993 RMK A01 T01051076  RH  027%=      5-min Rain = 0
KBR1 140138Z 36009KT 11/M08 A2993 RMK A01 T01051076  RH  027%=      5-min Rain = 0
KBR1 140139Z 00008KT 10/M08 A2993 RMK A01 T01041075  RH  028%=      5-min Rain = 0
KBR1 140140Z 00008KT 10/M08 A2994 RMK A01 T01031075  RH  028%=      5-min Rain = 0
KBR1 140141Z 00009KT 10/M07 A2994 RMK A01 T01021073  RH  028%=      5-min Rain = 0
KBR1 140142Z 00009KT 10/M07 A2993 RMK A01 T01021069  RH  029%=      5-min Rain = 0
KBR1 140143Z 01009KT 10/M07 A2993 RMK A01 T01021068  RH  030%=      5-min Rain = 0
KBR1 140144Z 02009KT 10/M07 A2992 RMK A01 T01011069  RH  029%=      5-min Rain = 0
KBR1 140145Z 02009KT 10/M07 A2992 RMK A01 T01011067  RH  030%=      5-min Rain = 0
KBR1 140146Z 02008KT 10/M07 A2992 RMK A01 T01001066  RH  030%=      5-min Rain = 0
KBR1 140147Z 02007KT 10/M07 A2992 RMK A01 T00991065  RH  031%=      5-min Rain = 0
KBR1 140148Z 04007KT 10/M06 A2992 RMK A01 T00971064  RH  032%=      5-min Rain = 0
KBR1 140149Z 02008KT 10/M06 A2992 RMK A01 T00951060  RH  033%=      5-min Rain = 0
KBR1 140150Z 01009KT 09/M05 A2992 RMK A01 T00941053  RH  035%=      5-min Rain = 0
KBR1 140151Z 02008KT 09/M06 A2992 RMK A01 T00941055  RH  034%=      5-min Rain = 0
KBR1 140152Z 02009KT 09/M06 A2992 RMK A01 T00941056  RH  034%=      5-min Rain = 0
KBR1 140153Z 03009KT 09/M06 A2993 RMK A01 T00941056  RH  034%=      5-min Rain = 0
KBR1 140154Z 02008KT 09/M05 A2993 RMK A01 T00931054  RH  035%=      5-min Rain = 0
KBR1 140155Z 01008KT 09/M05 A2994 RMK A01 T00931052  RH  036%=      5-min Rain = 0
KBR1 140156Z 35008KT 09/M05 A2994 RMK A01 T00931050  RH  036%=      5-min Rain = 0
KBR1 140157Z 00007KT 09/M05 A2994 RMK A01 T00921052  RH  036%=      5-min Rain = 0
KBR1 140158Z 01006KT 09/M05 A2994 RMK A01 T00911050  RH  037%=      5-min Rain = 0
KBR1 140159Z 02006KT 09/M05 A2994 RMK A01 T00901049  RH  037%=      5-min Rain = 0
KBR1 140200Z 02004KT 09/M05 A2994 RMK A01 T00911049  RH  037%=      5-min Rain = 0
KBR1 140201Z 33003KT 09/M05 A2994 RMK A01 T00891049  RH  037%=      5-min Rain = 0
KBR1 140202Z 31004KT 09/M05 A2995 RMK A01 T00861054  RH  037%=      5-min Rain = 0
KBR1 140203Z 33007KT 08/M06 A2995 RMK A01 T00831057  RH  037%=      5-min Rain = 0
KBR1 140204Z 34006KT 08/M06 A2995 RMK A01 T00781058  RH  037%=      5-min Rain = 0
KBR1 140205Z 33003KT 08/M06 A2995 RMK A01 T00751058  RH  038%=      5-min Rain = 0
KBR1 140206Z 32002KT 07/M06 A2995 RMK A01 T00741059  RH  038%=      5-min Rain = 0
KBR1 140207Z 31003KT 07/M06 A2995 RMK A01 T00731058  RH  039%=      5-min Rain = 0
KBR1 140208Z 31003KT 07/M06 A2995 RMK A01 T00731058  RH  039%=      5-min Rain = 0
KBR1 140209Z 31004KT 07/M06 A2995 RMK A01 T00721057  RH  039%=      5-min Rain = 0
KBR1 140210Z 30007KT 07/M06 A2995 RMK A01 T00741057  RH  039%=      5-min Rain = 0
KBR1 140211Z 31006KT 08/M06 A2996 RMK A01 T00751056  RH  039%=      5-min Rain = 0
KBR1 140212Z 32007KT 07/M06 A2996 RMK A01 T00741057  RH  039%=      5-min Rain = 0
KBR1 140213Z 33007KT 07/M06 A2996 RMK A01 T00721057  RH  039%=      5-min Rain = 0
KBR1 140214Z 33006KT 07/M06 A2996 RMK A01 T00701057  RH  040%=      5-min Rain = 0
KBR1 140215Z 32007KT 07/M06 A2996 RMK A01 T00691057  RH  040%=      5-min Rain = 0
KBR1 140216Z 33008KT 07/M06 A2996 RMK A01 T00691057  RH  040%=      5-min Rain = 0
KBR1 140217Z 34007KT 07/M06 A2996 RMK A01 T00691057  RH  040%=      5-min Rain = 0
KBR1 140218Z 33007KT 07/M06 A2996 RMK A01 T00691057  RH  040%=      5-min Rain = 0
KBR1 140219Z 33006KT 07/M06 A2996 RMK A01 T00681057  RH  041%=      5-min Rain = 0
KBR1 140220Z 33006KT 07/M06 A2996 RMK A01 T00681057  RH  041%=      5-min Rain = 0
KBR1 140221Z 34005KT 07/M06 A2996 RMK A01 T00681057  RH  041%=      5-min Rain = 0
KBR1 140222Z 34007KT 07/M06 A2996 RMK A01 T00671058  RH  041%=      5-min Rain = 0
KBR1 140223Z 33007KT 06/M06 A2996 RMK A01 T00641058  RH  041%=      5-min Rain = 0
KBR1 140224Z 33006KT 06/M06 A2996 RMK A01 T00611059  RH  042%=      5-min Rain = 0
KBR1 140225Z 33008KT 06/M06 A2996 RMK A01 T00601058  RH  042%=      5-min Rain = 0
KBR1 140226Z 34007KT 06/M06 A2996 RMK A01 T00591058  RH  043%=      5-min Rain = 0
KBR1 140227Z 35007KT 06/M06 A2996 RMK A01 T00571058  RH  043%=      5-min Rain = 0
KBR1 140228Z 36005KT 06/M06 A2996 RMK A01 T00571058  RH  043%=      5-min Rain = 0
KBR1 140229Z 34004KT 06/M06 A2995 RMK A01 T00571057  RH  043%=      5-min Rain = 0
KBR1 140230Z 34004KT 06/M06 A2995 RMK A01 T00571057  RH  044%=      5-min Rain = 0
KBR1 140231Z 34005KT 06/M06 A2995 RMK A01 T00561056  RH  044%=      5-min Rain = 0
KBR1 140232Z 34007KT 06/M06 A2996 RMK A01 T00561056  RH  044%=      5-min Rain = 0
KBR1 140233Z 34006KT 06/M06 A2995 RMK A01 T00581055  RH  044%=      5-min Rain = 0
KBR1 140234Z 33005KT 06/M06 A2995 RMK A01 T00581056  RH  044%=      5-min Rain = 0
KBR1 140235Z 34006KT 06/M06 A2995 RMK A01 T00591055  RH  044%=      5-min Rain = 0
KBR1 140236Z 34008KT 06/M06 A2995 RMK A01 T00591055  RH  044%=      5-min Rain = 0
KBR1 140237Z 34007KT 06/M06 A2996 RMK A01 T00571056  RH  044%=      5-min Rain = 0
KBR1 140238Z 33007KT 06/M06 A2996 RMK A01 T00581055  RH  044%=      5-min Rain = 0
KBR1 140239Z 34005KT 06/M05 A2995 RMK A01 T00601054  RH  044%=      5-min Rain = 0
KBR1 140240Z 35006KT 06/M05 A2995 RMK A01 T00621054  RH  043%=      5-min Rain = 0
KBR1 140241Z 35005KT 06/M05 A2995 RMK A01 T00621053  RH  043%=      5-min Rain = 0
KBR1 140242Z 34005KT 06/M05 A2995 RMK A01 T00601054  RH  044%=      5-min Rain = 0
KBR1 140243Z 34006KT 06/M05 A2995 RMK A01 T00591054  RH  044%=      5-min Rain = 0
KBR1 140244Z 35005KT 06/M05 A2995 RMK A01 T00601054  RH  044%=      5-min Rain = 0
KBR1 140245Z 34004KT 06/M05 A2995 RMK A01 T00611053  RH  044%=      5-min Rain = 0
KBR1 140246Z 35005KT 06/M05 A2995 RMK A01 T00591054  RH  044%=      5-min Rain = 0
KBR1 140247Z 33006KT 06/M05 A2994 RMK A01 T00581054  RH  045%=      5-min Rain = 0
KBR1 140248Z 32005KT 06/M05 A2995 RMK A01 T00571054  RH  045%=      5-min Rain = 0
KBR1 140249Z 33007KT 06/M05 A2995 RMK A01 T00581053  RH  045%=      5-min Rain = 0
KBR1 140250Z 32007KT 06/M05 A2995 RMK A01 T00621051  RH  044%=      5-min Rain = 0
KBR1 140251Z 32006KT 07/M05 A2996 RMK A01 T00681048  RH  043%=      5-min Rain = 0
KBR1 140252Z 32008KT 07/M05 A2996 RMK A01 T00701048  RH  043%=      5-min Rain = 0
KBR1 140253Z 32008KT 07/M05 A2996 RMK A01 T00701050  RH  042%=      5-min Rain = 0
KBR1 140254Z 32008KT 07/M05 A2996 RMK A01 T00721050  RH  041%=      5-min Rain = 0
KBR1 140255Z 32008KT 08/M05 A2996 RMK A01 T00771050  RH  040%=      5-min Rain = 0
KBR1 140256Z 32009KT 08/M05 A2996 RMK A01 T00811052  RH  039%=      5-min Rain = 0
KBR1 140257Z 32009KT 09/M06 A2996 RMK A01 T00851055  RH  037%=      5-min Rain = 0
KBR1 140258Z 33009KT 09/M06 A2996 RMK A01 T00881056  RH  036%=      5-min Rain = 0
KBR1 140259Z 33009KT 09/M06 A2996 RMK A01 T00891059  RH  035%=      5-min Rain = 0
KBR1 140300Z 32009KT 09/M06 A2996 RMK A01 T00901061  RH  034%=      5-min Rain = 0
KBR1 140301Z 32009KT 09/M06 A2996 RMK A01 T00901061  RH  034%=      5-min Rain = 0
KBR1 140302Z 33009KT 09/M06 A2996 RMK A01 T00881061  RH  034%=      5-min Rain = 0
KBR1 140303Z 33009KT 09/M06 A2996 RMK A01 T00881061  RH  034%=      5-min Rain = 0
KBR1 140304Z 33009KT 09/M06 A2996 RMK A01 T00871061  RH  035%=      5-min Rain = 0
KBR1 140305Z 33009KT 09/M06 A2996 RMK A01 T00871060  RH  035%=      5-min Rain = 0
KBR1 140306Z 34009KT 09/M06 A2996 RMK A01 T00871060  RH  035%=      5-min Rain = 0
KBR1 140307Z 34009KT 09/M06 A2997 RMK A01 T00871060  RH  035%=      5-min Rain = 0
KBR1 140308Z 34009KT 09/M06 A2997 RMK A01 T00881058  RH  035%=      5-min Rain = 0
KBR1 140309Z 34011KT 09/M06 A2997 RMK A01 T00901057  RH  035%=      5-min Rain = 0
KBR1 140310Z 34010KT 09/M06 A2997 RMK A01 T00941057  RH  034%=      5-min Rain = 0
KBR1 140311Z 34010KT 10/M06 A2997 RMK A01 T00961057  RH  033%=      5-min Rain = 0
KBR1 140312Z 34011KT 10/M06 A2996 RMK A01 T00971058  RH  033%=      5-min Rain = 0
KBR1 140313Z 34011KT 10/M06 A2996 RMK A01 T00991060  RH  032%=      5-min Rain = 0
KBR1 140314Z 33011KT 10/M06 A2996 RMK A01 T01001060  RH  032%=      5-min Rain = 0
KBR1 140315Z 33011KT 10/M06 A2996 RMK A01 T01001060  RH  032%=      5-min Rain = 0
KBR1 140316Z 33012KT 10/M06 A2997 RMK A01 T01001061  RH  032%=      5-min Rain = 0
KBR1 140317Z 33011KT 10/M06 A2997 RMK A01 T01001061  RH  032%=      5-min Rain = 0
KBR1 140318Z 33011KT 10/M06 A2996 RMK A01 T01001062  RH  032%=      5-min Rain = 0
KBR1 140319Z 33011KT 10/M06 A2996 RMK A01 T01001062  RH  031%=      5-min Rain = 0
KBR1 140320Z 34010KT 10/M06 A2996 RMK A01 T01001062  RH  031%=      5-min Rain = 0
KBR1 140321Z 34011KT 10/M06 A2996 RMK A01 T00991062  RH  032%=      5-min Rain = 0
KBR1 140322Z 35010KT 10/M06 A2996 RMK A01 T00981063  RH  032%=      5-min Rain = 0
KBR1 140323Z 34011KT 10/M06 A2996 RMK A01 T00981062  RH  032%=      5-min Rain = 0
KBR1 140324Z 34010KT 10/M06 A2996 RMK A01 T00981063  RH  032%=      5-min Rain = 0
KBR1 140325Z 35010KT 10/M06 A2996 RMK A01 T00961062  RH  032%=      5-min Rain = 0
KBR1 140326Z 35010KT 10/M06 A2996 RMK A01 T00951063  RH  032%=      5-min Rain = 0
KBR1 140327Z 01011KT 10/M06 A2996 RMK A01 T00951063  RH  032%=      5-min Rain = 0
KBR1 140328Z 01010KT 09/M06 A2996 RMK A01 T00931062  RH  033%=      5-min Rain = 0
KBR1 140329Z 02011KT 09/M06 A2996 RMK A01 T00921062  RH  033%=      5-min Rain = 0
KBR1 140330Z 02011KT 09/M06 A2997 RMK A01 T00901062  RH  034%=      5-min Rain = 0
KBR1 140331Z 02011KT 09/M06 A2997 RMK A01 T00891062  RH  034%=      5-min Rain = 0
KBR1 140332Z 03010KT 09/M06 A2997 RMK A01 T00891061  RH  034%=      5-min Rain = 0
KBR1 140333Z 02009KT 09/M06 A2997 RMK A01 T00871062  RH  034%=      5-min Rain = 0
KBR1 140334Z 02008KT 09/M06 A2996 RMK A01 T00861062  RH  035%=      5-min Rain = 0
KBR1 140335Z 03011KT 08/M06 A2997 RMK A01 T00841062  RH  035%=      5-min Rain = 0
KBR1 140336Z 03011KT 08/M06 A2997 RMK A01 T00821061  RH  036%=      5-min Rain = 0
KBR1 140337Z 01012KT 08/M06 A2996 RMK A01 T00801062  RH  036%=      5-min Rain = 0
KBR1 140338Z 02013KT 08/M06 A2996 RMK A01 T00801063  RH  036%=      5-min Rain = 0
KBR1 140339Z 02014KT 08/M06 A2996 RMK A01 T00801064  RH  035%=      5-min Rain = 0
KBR1 140340Z 02015KT 08/M07 A2996 RMK A01 T00811065  RH  035%=      5-min Rain = 0
KBR1 140341Z 02014KT 08/M07 A2996 RMK A01 T00821065  RH  035%=      5-min Rain = 0
KBR1 140342Z 02012KT 08/M07 A2996 RMK A01 T00811066  RH  035%=      5-min Rain = 0
KBR1 140343Z 02012KT 08/M07 A2996 RMK A01 T00801066  RH  035%=      5-min Rain = 0
KBR1 140344Z 02012KT 08/M07 A2996 RMK A01 T00791067  RH  035%=      5-min Rain = 0
KBR1 140345Z 02012KT 08/M07 A2996 RMK A01 T00781066  RH  035%=      5-min Rain = 0
KBR1 140346Z 02012KT 08/M07 A2996 RMK A01 T00771066  RH  035%=      5-min Rain = 0
KBR1 140347Z 02012KT 08/M07 A2996 RMK A01 T00761067  RH  036%=      5-min Rain = 0
KBR1 140348Z 02012KT 07/M07 A2996 RMK A01 T00741066  RH  036%=      5-min Rain = 0
KBR1 140349Z 02012KT 07/M07 A2995 RMK A01 T00731066  RH  037%=      5-min Rain = 0
KBR1 140350Z 02011KT 07/M07 A2995 RMK A01 T00721066  RH  037%=      5-min Rain = 0
KBR1 140351Z 02012KT 07/M06 A2995 RMK A01 T00711064  RH  037%=      5-min Rain = 0
KBR1 140352Z 02012KT 07/M06 A2995 RMK A01 T00711064  RH  038%=      5-min Rain = 0
KBR1 140353Z 02012KT 07/M06 A2995 RMK A01 T00701063  RH  038%=      5-min Rain = 0
KBR1 140354Z 01012KT 07/M06 A2995 RMK A01 T00691063  RH  038%=      5-min Rain = 0
KBR1 140355Z 01013KT 07/M06 A2995 RMK A01 T00691064  RH  038%=      5-min Rain = 0
KBR1 140356Z 02013KT 07/M06 A2995 RMK A01 T00671064  RH  039%=      5-min Rain = 0
KBR1 140357Z 02014KT 07/M06 A2995 RMK A01 T00671064  RH  039%=      5-min Rain = 0
KBR1 140358Z 02015KT 07/M07 A2995 RMK A01 T00661065  RH  039%=      5-min Rain = 0
KBR1 140359Z 02014KT 07/M07 A2995 RMK A01 T00661065  RH  039%=      5-min Rain = 0
KBR1 140400Z 02015KT 07/M07 A2995 RMK A01 T00661065  RH  039%=      5-min Rain = 0
KBR1 140401Z 01014KT 07/M06 A2995 RMK A01 T00651064  RH  039%=      5-min Rain = 0
KBR1 140402Z 01015KT 07/M06 A2995 RMK A01 T00651063  RH  040%=      5-min Rain = 0
KBR1 140403Z 01015KT 06/M06 A2995 RMK A01 T00641063  RH  040%=      5-min Rain = 0
KBR1 140404Z 01015KT 06/M06 A2995 RMK A01 T00641063  RH  040%=      5-min Rain = 0
KBR1 140405Z 02014KT 06/M06 A2995 RMK A01 T00631062  RH  040%=      5-min Rain = 0
KBR1 140406Z 02014KT 06/M06 A2995 RMK A01 T00631061  RH  040%=      5-min Rain = 0
KBR1 140407Z 01013KT 06/M06 A2995 RMK A01 T00621061  RH  041%=      5-min Rain = 0
KBR1 140408Z 01013KT 06/M06 A2995 RMK A01 T00611062  RH  041%=      5-min Rain = 0
KBR1 140409Z 01014KT 06/M06 A2995 RMK A01 T00601062  RH  041%=      5-min Rain = 0
KBR1 140410Z 01015KT 06/M06 A2995 RMK A01 T00581061  RH  042%=      5-min Rain = 0
KBR1 140411Z 01014KT 06/M06 A2995 RMK A01 T00581060  RH  042%=      5-min Rain = 0
KBR1 140412Z 01015KT 06/M06 A2995 RMK A01 T00581059  RH  043%=      5-min Rain = 0
KBR1 140413Z 01015KT 06/M06 A2995 RMK A01 T00581058  RH  043%=      5-min Rain = 0
KBR1 140414Z 01015KT 06/M06 A2996 RMK A01 T00581057  RH  043%=      5-min Rain = 0
KBR1 140415Z 01016KT 06/M06 A2996 RMK A01 T00571058  RH  043%=      5-min Rain = 0
KBR1 140416Z 01015KT 06/M06 A2996 RMK A01 T00571060  RH  043%=      5-min Rain = 0
KBR1 140417Z 01015KT 06/M06 A2996 RMK A01 T00571062  RH  042%=      5-min Rain = 0
KBR1 140418Z 01015KT 06/M06 A2996 RMK A01 T00571062  RH  042%=      5-min Rain = 0
KBR1 140419Z 02015KT 06/M06 A2996 RMK A01 T00571063  RH  042%=      5-min Rain = 0
KBR1 140420Z 02016KT 06/M06 A2996 RMK A01 T00561063  RH  042%=      5-min Rain = 0
KBR1 140421Z 02015KT 06/M06 A2996 RMK A01 T00551062  RH  043%=      5-min Rain = 0
KBR1 140422Z 02016KT 06/M06 A2996 RMK A01 T00551061  RH  043%=      5-min Rain = 0
KBR1 140423Z 02014KT 06/M06 A2996 RMK A01 T00551058  RH  044%=      5-min Rain = 0
KBR1 140424Z 02014KT 05/M06 A2996 RMK A01 T00541057  RH  044%=      5-min Rain = 0
KBR1 140425Z 02013KT 06/M06 A2996 RMK A01 T00551056  RH  045%=      5-min Rain = 0
KBR1 140426Z 03014KT 06/M05 A2996 RMK A01 T00551054  RH  045%=      5-min Rain = 0
KBR1 140427Z 03014KT 06/M05 A2996 RMK A01 T00551054  RH  046%=      5-min Rain = 0
KBR1 140428Z 03014KT 06/M05 A2996 RMK A01 T00551053  RH  046%=      5-min Rain = 0
KBR1 140429Z 03014KT 06/M05 A2996 RMK A01 T00551052  RH  046%=      5-min Rain = 0
KBR1 140430Z 03014KT 06/M05 A2996 RMK A01 T00551050  RH  047%=      5-min Rain = 0
KBR1 140431Z 03014KT 06/M05 A2996 RMK A01 T00551049  RH  047%=      5-min Rain = 0
KBR1 140432Z 03014KT 05/M05 A2996 RMK A01 T00541049  RH  047%=      5-min Rain = 0
KBR1 140433Z 03013KT 05/M05 A2995 RMK A01 T00541048  RH  048%=      5-min Rain = 0
KBR1 140434Z 04013KT 05/M05 A2995 RMK A01 T00531047  RH  048%=      5-min Rain = 0
KBR1 140435Z 03013KT 05/M05 A2995 RMK A01 T00531046  RH  049%=      5-min Rain = 0
KBR1 140436Z 04014KT 05/M05 A2995 RMK A01 T00531045  RH  049%=      5-min Rain = 0
KBR1 140437Z 04013KT 05/M04 A2995 RMK A01 T00541043  RH  050%=      5-min Rain = 0
KBR1 140438Z 03013KT 05/M04 A2995 RMK A01 T00541041  RH  050%=      5-min Rain = 0
KBR1 140439Z 04012KT 05/M04 A2995 RMK A01 T00531040  RH  051%=      5-min Rain = 0
KBR1 140440Z 04013KT 05/M04 A2995 RMK A01 T00531039  RH  051%=      5-min Rain = 0
KBR1 140441Z 03013KT 05/M04 A2995 RMK A01 T00541038  RH  052%=      5-min Rain = 0
KBR1 140442Z 03013KT 06/M04 A2994 RMK A01 T00551037  RH  052%=      5-min Rain = 0
KBR1 140443Z 03013KT 06/M04 A2994 RMK A01 T00561036  RH  051%=      5-min Rain = 0
KBR1 140444Z 04013KT 06/M04 A2994 RMK A01 T00571036  RH  051%=      5-min Rain = 0
KBR1 140445Z 03013KT 06/M04 A2995 RMK A01 T00581035  RH  051%=      5-min Rain = 0
KBR1 140446Z 03014KT 06/M04 A2995 RMK A01 T00591035  RH  051%=      5-min Rain = 0
KBR1 140447Z 03014KT 06/M04 A2995 RMK A01 T00591035  RH  051%=      5-min Rain = 0
KBR1 140448Z 03013KT 06/M04 A2995 RMK A01 T00601035  RH  051%=      5-min Rain = 0
KBR1 140449Z 03012KT 06/M04 A2995 RMK A01 T00591035  RH  051%=      5-min Rain = 0
KBR1 140450Z 03014KT 06/M04 A2995 RMK A01 T00581035  RH  051%=      5-min Rain = 0
KBR1 140451Z 03013KT 06/M04 A2995 RMK A01 T00581035  RH  051%=      5-min Rain = 0
KBR1 140452Z 03012KT 06/M04 A2995 RMK A01 T00581035  RH  051%=      5-min Rain = 0
KBR1 140453Z 02013KT 06/M04 A2996 RMK A01 T00571035  RH  052%=      5-min Rain = 0
KBR1 140454Z 02013KT 06/M04 A2996 RMK A01 T00561035  RH  052%=      5-min Rain = 0
KBR1 140455Z 02013KT 06/M04 A2995 RMK A01 T00551035  RH  052%=      5-min Rain = 0
KBR1 140456Z 02012KT 06/M04 A2995 RMK A01 T00551035  RH  052%=      5-min Rain = 0
KBR1 140457Z 03013KT 05/M04 A2995 RMK A01 T00541035  RH  053%=      5-min Rain = 0
KBR1 140458Z 03012KT 05/M04 A2995 RMK A01 T00541035  RH  053%=      5-min Rain = 0
KBR1 140459Z 03011KT 05/M04 A2995 RMK A01 T00541035  RH  053%=      5-min Rain = 0
KBR1 140500Z 03012KT 05/M04 A2995 RMK A01 T00541035  RH  053%=      5-min Rain = 0
KBR1 140501Z 04011KT 06/M04 A2996 RMK A01 T00551035  RH  052%=      5-min Rain = 0
KBR1 140502Z 04011KT 06/M04 A2996 RMK A01 T00561035  RH  052%=      5-min Rain = 0
KBR1 140503Z 04011KT 06/M03 A2996 RMK A01 T00561034  RH  052%=      5-min Rain = 0
KBR1 140504Z 04012KT 06/M04 A2996 RMK A01 T00561035  RH  052%=      5-min Rain = 0
KBR1 140505Z 04010KT 06/M03 A2996 RMK A01 T00571034  RH  052%=      5-min Rain = 0
KBR1 140506Z 04011KT 06/M03 A2996 RMK A01 T00571034  RH  052%=      5-min Rain = 0
KBR1 140507Z 04011KT 06/M03 A2996 RMK A01 T00561034  RH  052%=      5-min Rain = 0
KBR1 140508Z 04010KT 06/M03 A2996 RMK A01 T00571034  RH  052%=      5-min Rain = 0
KBR1 140509Z 04011KT 06/M03 A2996 RMK A01 T00571034  RH  052%=      5-min Rain = 0
KBR1 140510Z 04010KT 06/M03 A2996 RMK A01 T00571034  RH  052%=      5-min Rain = 0
KBR1 140511Z 04010KT 06/M03 A2996 RMK A01 T00581034  RH  052%=      5-min Rain = 0
KBR1 140512Z 04010KT 06/M03 A2996 RMK A01 T00581033  RH  052%=      5-min Rain = 0
KBR1 140513Z 04010KT 06/M03 A2996 RMK A01 T00581033  RH  052%=      5-min Rain = 0
KBR1 140514Z 05009KT 06/M03 A2996 RMK A01 T00581033  RH  052%=      5-min Rain = 0
KBR1 140515Z 05009KT 06/M03 A2996 RMK A01 T00581033  RH  052%=      5-min Rain = 0
KBR1 140516Z 05009KT 06/M03 A2996 RMK A01 T00581032  RH  052%=      5-min Rain = 0
KBR1 140517Z 04010KT 06/M03 A2996 RMK A01 T00581032  RH  052%=      5-min Rain = 0
KBR1 140518Z 04009KT 06/M03 A2996 RMK A01 T00581032  RH  052%=      5-min Rain = 0
KBR1 140519Z 04009KT 06/M03 A2996 RMK A01 T00581032  RH  052%=      5-min Rain = 0
KBR1 140520Z 04009KT 06/M03 A2996 RMK A01 T00581032  RH  053%=      5-min Rain = 0
KBR1 140521Z 04009KT 06/M03 A2996 RMK A01 T00581031  RH  053%=      5-min Rain = 0
KBR1 140522Z 04009KT 06/M03 A2996 RMK A01 T00581031  RH  053%=      5-min Rain = 0
KBR1 140523Z 04009KT 06/M03 A2996 RMK A01 T00581031  RH  053%=      5-min Rain = 0
KBR1 140524Z 04008KT 06/M03 A2996 RMK A01 T00591031  RH  053%=      5-min Rain = 0
KBR1 140525Z 04009KT 06/M03 A2996 RMK A01 T00581031  RH  053%=      5-min Rain = 0
KBR1 140526Z 04009KT 06/M03 A2996 RMK A01 T00581030  RH  053%=      5-min Rain = 0
KBR1 140527Z 04009KT 06/M03 A2996 RMK A01 T00581030  RH  053%=      5-min Rain = 0
KBR1 140528Z 04009KT 06/M03 A2996 RMK A01 T00581029  RH  053%=      5-min Rain = 0
KBR1 140529Z 04008KT 06/M03 A2996 RMK A01 T00581030  RH  053%=      5-min Rain = 0
KBR1 140530Z 04008KT 06/M03 A2996 RMK A01 T00581030  RH  053%=      5-min Rain = 0
KBR1 140531Z 04008KT 06/M03 A2996 RMK A01 T00571030  RH  054%=      5-min Rain = 0
KBR1 140532Z 04008KT 06/M03 A2996 RMK A01 T00571030  RH  054%=      5-min Rain = 0
KBR1 140533Z 05008KT 06/M03 A2996 RMK A01 T00561030  RH  054%=      5-min Rain = 0
KBR1 140534Z 05007KT 06/M03 A2996 RMK A01 T00551030  RH  054%=      5-min Rain = 0
KBR1 140535Z 05007KT 05/M03 A2996 RMK A01 T00541031  RH  054%=      5-min Rain = 0
KBR1 140536Z 05007KT 05/M03 A2996 RMK A01 T00531031  RH  055%=      5-min Rain = 0
KBR1 140537Z 05007KT 05/M03 A2996 RMK A01 T00521031  RH  055%=      5-min Rain = 0
KBR1 140538Z 05007KT 05/M03 A2996 RMK A01 T00511031  RH  055%=      5-min Rain = 0
KBR1 140539Z 05007KT 05/M03 A2996 RMK A01 T00511031  RH  056%=      5-min Rain = 0
KBR1 140540Z 05007KT 05/M03 A2996 RMK A01 T00511030  RH  056%=      5-min Rain = 0
KBR1 140541Z 05007KT 05/M03 A2996 RMK A01 T00511030  RH  056%=      5-min Rain = 0
KBR1 140542Z 06007KT 05/M03 A2996 RMK A01 T00501030  RH  056%=      5-min Rain = 0
KBR1 140543Z 07007KT 05/M03 A2996 RMK A01 T00501030  RH  056%=      5-min Rain = 0
KBR1 140544Z 07007KT 05/M03 A2996 RMK A01 T00501030  RH  056%=      5-min Rain = 0
KBR1 140545Z 07007KT 05/M03 A2996 RMK A01 T00491030  RH  056%=      5-min Rain = 0
KBR1 140546Z 06007KT 05/M03 A2996 RMK A01 T00481030  RH  057%=      5-min Rain = 0
KBR1 140547Z 06007KT 05/M03 A2996 RMK A01 T00481030  RH  057%=      5-min Rain = 0
KBR1 140548Z 07007KT 05/M03 A2996 RMK A01 T00471031  RH  057%=      5-min Rain = 0
KBR1 140549Z 06007KT 05/M03 A2996 RMK A01 T00471030  RH  057%=      5-min Rain = 0
KBR1 140550Z 07007KT 05/M03 A2996 RMK A01 T00461030  RH  057%=      5-min Rain = 0
KBR1 140551Z 06007KT 05/M03 A2996 RMK A01 T00461031  RH  058%=      5-min Rain = 0
KBR1 140552Z 06007KT 05/M03 A2996 RMK A01 T00451031  RH  058%=      5-min Rain = 0
KBR1 140553Z 06007KT 05/M03 A2996 RMK A01 T00451031  RH  058%=      5-min Rain = 0
KBR1 140554Z 05007KT 04/M03 A2996 RMK A01 T00441031  RH  058%=      5-min Rain = 0
KBR1 140555Z 05007KT 04/M03 A2996 RMK A01 T00431031  RH  058%=      5-min Rain = 0
KBR1 140556Z 05007KT 04/M03 A2997 RMK A01 T00411033  RH  059%=      5-min Rain = 0
KBR1 140557Z 05007KT 04/M03 A2997 RMK A01 T00381034  RH  059%=      5-min Rain = 0
KBR1 140558Z 05007KT 04/M03 A2997 RMK A01 T00361034  RH  060%=      5-min Rain = 0
KBR1 140559Z 05007KT 03/M03 A2997 RMK A01 T00341034  RH  061%=      5-min Rain = 0

Page generated in 0.0696 seconds.